Wetterdaten: Montag, 20.10.2014
Datum Zeit Temp. Aussen +5cm Feuchte Auss Luftdruck Regen Sonnenschein Regendauer Solar Windben
20.10.2014 00:00 15,8 C 13,9 C 82 % 1016,4 hPa 0,0 l/m 0 min 0 min 0 W/m 23,0 km/h (4 Bft)
20.10.2014 00:02 15,8 C 13,9 C 82 % 1016,5 hPa 0,0 l/m 0 min 0 min 0 W/m 29,3 km/h (5 Bft)
20.10.2014 00:05 15,7 C 13,9 C 83 % 1016,4 hPa 0,0 l/m 0 min 0 min 0 W/m 27,2 km/h (4 Bft)
20.10.2014 00:06 15,7 C 13,9 C 83 % 1016,4 hPa 0,0 l/m 0 min 0 min 0 W/m 23,0 km/h (4 Bft)
20.10.2014 00:08 15,7 C 13,9 C 83 % 1016,4 hPa 0,0 l/m 0 min 0 min 0 W/m 20,9 km/h (4 Bft)
20.10.2014 00:10 15,7 C 13,9 C 83 % 1016,3 hPa 0,0 l/m 0 min 0 min 0 W/m 23,0 km/h (4 Bft)
20.10.2014 00:12 15,7 C 13,9 C 83 % 1016,4 hPa 0,0 l/m 0 min 0 min 0 W/m 16,7 km/h (3 Bft)
20.10.2014 00:14 15,7 C 13,9 C 83 % 1016,4 hPa 0,0 l/m 0 min 0 min 0 W/m 20,9 km/h (4 Bft)
20.10.2014 00:16 15,7 C 13,9 C 84 % 1016,4 hPa 0,0 l/m 0 min 0 min 0 W/m 18,8 km/h (3 Bft)
20.10.2014 00:18 15,7 C 13,9 C 84 % 1016,5 hPa 0,0 l/m 0 min 0 min 0 W/m 16,7 km/h (3 Bft)
20.10.2014 00:20 15,6 C 13,9 C 84 % 1016,3 hPa 0,0 l/m 0 min 0 min 0 W/m 18,8 km/h (3 Bft)
20.10.2014 00:22 15,6 C 13,9 C 84 % 1016,3 hPa 0,0 l/m 0 min 0 min 0 W/m 29,3 km/h (5 Bft)
20.10.2014 00:24 15,6 C 13,9 C 84 % 1016,3 hPa 0,0 l/m 0 min 0 min 0 W/m 25,1 km/h (4 Bft)
20.10.2014 00:26 15,6 C 13,9 C 84 % 1016,3 hPa 0,0 l/m 0 min 0 min 0 W/m 18,8 km/h (3 Bft)
20.10.2014 00:28 15,6 C 13,9 C 84 % 1016,4 hPa 0,0 l/m 0 min 0 min 0 W/m 25,1 km/h (4 Bft)
20.10.2014 00:30 15,6 C 13,9 C 85 % 1016,3 hPa 0,0 l/m 0 min 0 min 0 W/m 27,2 km/h (4 Bft)
20.10.2014 00:32 15,6 C 13,9 C 85 % 1016,3 hPa 0,0 l/m 0 min 0 min 0 W/m 29,3 km/h (5 Bft)
20.10.2014 00:34 15,6 C 13,9 C 85 % 1016,4 hPa 0,0 l/m 0 min 0 min 0 W/m 18,8 km/h (3 Bft)
20.10.2014 00:36 15,6 C 13,9 C 84 % 1016,5 hPa 0,0 l/m 0 min 0 min 0 W/m 25,1 km/h (4 Bft)
20.10.2014 00:38 15,6 C 13,9 C 85 % 1016,5 hPa 0,0 l/m 0 min 0 min 0 W/m 25,1 km/h (4 Bft)
20.10.2014 00:40 15,6 C 13,9 C 85 % 1016,5 hPa 0,0 l/m 0 min 0 min 0 W/m 23,0 km/h (4 Bft)
20.10.2014 00:42 15,6 C 13,9 C 85 % 1016,5 hPa 0,0 l/m 0 min 0 min 0 W/m 27,2 km/h (4 Bft)
20.10.2014 00:44 15,6 C 13,9 C 85 % 1016,5 hPa 0,0 l/m 0 min 0 min 0 W/m 25,1 km/h (4 Bft)
20.10.2014 00:46 15,6 C 13,9 C 85 % 1016,6 hPa 0,0 l/m 0 min 0 min 0 W/m 25,1 km/h (4 Bft)
20.10.2014 00:48 15,6 C 13,9 C 85 % 1016,5 hPa 0,0 l/m 0 min 0 min 0 W/m 27,2 km/h (4 Bft)
20.10.2014 00:50 15,6 C 13,9 C 85 % 1016,5 hPa 0,0 l/m 0 min 0 min 0 W/m 23,0 km/h (4 Bft)
20.10.2014 00:52 15,5 C 13,9 C 85 % 1016,5 hPa 0,0 l/m 0 min 0 min 0 W/m 29,3 km/h (5 Bft)
20.10.2014 00:54 15,5 C 13,9 C 85 % 1016,5 hPa 0,0 l/m 0 min 0 min 0 W/m 29,3 km/h (5 Bft)
20.10.2014 00:56 15,5 C 13,9 C 85 % 1016,5 hPa 0,0 l/m 0 min 0 min 0 W/m 16,7 km/h (3 Bft)
20.10.2014 00:58 15,5 C 13,9 C 85 % 1016,4 hPa 0,0 l/m 0 min 0 min 0 W/m 23,0 km/h (4 Bft)
20.10.2014 01:00 15,5 C 13,9 C 85 % 1016,4 hPa 0,0 l/m 0 min 0 min 0 W/m 27,2 km/h (4 Bft)
20.10.2014 01:02 15,5 C 13,9 C 85 % 1016,4 hPa 0,0 l/m 0 min 0 min 0 W/m 29,3 km/h (5 Bft)
20.10.2014 01:04 15,5 C 13,9 C 85 % 1016,4 hPa 0,0 l/m 0 min 0 min 0 W/m 25,1 km/h (4 Bft)
20.10.2014 01:06 15,4 C 13,9 C 85 % 1016,4 hPa 0,0 l/m 0 min 0 min 0 W/m 16,7 km/h (3 Bft)
20.10.2014 01:08 15,4 C 13,9 C 85 % 1016,4 hPa 0,0 l/m 0 min 0 min 0 W/m 25,1 km/h (4 Bft)
20.10.2014 01:10 15,4 C 13,9 C 85 % 1016,3 hPa 0,0 l/m 0 min 0 min 0 W/m 29,3 km/h (5 Bft)
20.10.2014 01:12 15,4 C 13,9 C 86 % 1016,3 hPa 0,0 l/m 0 min 0 min 0 W/m 23,0 km/h (4 Bft)
20.10.2014 01:14 15,4 C 13,9 C 86 % 1016,3 hPa 0,0 l/m 0 min 0 min 0 W/m 25,1 km/h (4 Bft)
20.10.2014 01:16 15,4 C 13,9 C 86 % 1016,3 hPa 0,0 l/m 0 min 0 min 0 W/m 20,9 km/h (4 Bft)
20.10.2014 01:18 15,4 C 13,9 C 86 % 1016,3 hPa 0,0 l/m 0 min 0 min 0 W/m 27,2 km/h (4 Bft)
20.10.2014 01:20 15,4 C 13,9 C 86 % 1016,3 hPa 0,0 l/m 0 min 0 min 0 W/m 18,8 km/h (3 Bft)
20.10.2014 01:22 15,4 C 13,9 C 86 % 1016,3 hPa 0,0 l/m 0 min 0 min 0 W/m 23,0 km/h (4 Bft)
20.10.2014 01:24 15,4 C 13,9 C 86 % 1016,3 hPa 0,0 l/m 0 min 0 min 0 W/m 23,0 km/h (4 Bft)
20.10.2014 01:26 15,4 C 13,9 C 86 % 1016,3 hPa 0,0 l/m 0 min 0 min 0 W/m 20,9 km/h (4 Bft)
20.10.2014 01:28 15,4 C 13,9 C 86 % 1016,3 hPa 0,0 l/m 0 min 0 min 0 W/m 25,1 km/h (4 Bft)
20.10.2014 01:30 15,4 C 13,9 C 86 % 1016,2 hPa 0,0 l/m 0 min 0 min 0 W/m 23,0 km/h (4 Bft)
20.10.2014 01:32 15,3 C 13,9 C 86 % 1016,3 hPa 0,0 l/m 0 min 0 min 0 W/m 29,3 km/h (5 Bft)
20.10.2014 01:34 15,3 C 13,9 C 86 % 1016,2 hPa 0,0 l/m 0 min 0 min 0 W/m 23,0 km/h (4 Bft)
20.10.2014 01:36 15,4 C 13,9 C 86 % 1016,2 hPa 0,0 l/m 0 min 0 min 0 W/m 23,0 km/h (4 Bft)
20.10.2014 01:38 15,3 C 13,9 C 86 % 1016,2 hPa 0,0 l/m 0 min 0 min 0 W/m 23,0 km/h (4 Bft)
20.10.2014 01:40 15,3 C 13,9 C 86 % 1016,3 hPa 0,0 l/m 0 min 0 min 0 W/m 20,9 km/h (4 Bft)
20.10.2014 01:42 15,3 C 13,9 C 86 % 1016,2 hPa 0,0 l/m 0 min 0 min 0 W/m 29,3 km/h (5 Bft)
20.10.2014 01:44 15,3 C 13,9 C 86 % 1016,3 hPa 0,0 l/m 0 min 0 min 0 W/m 27,2 km/h (4 Bft)
20.10.2014 01:46 15,3 C 13,9 C 86 % 1016,3 hPa 0,0 l/m 0 min 0 min 0 W/m 25,1 km/h (4 Bft)
20.10.2014 01:48 15,3 C 13,9 C 86 % 1016,2 hPa 0,0 l/m 0 min 0 min 0 W/m 18,8 km/h (3 Bft)
20.10.2014 01:50 15,3 C 13,9 C 86 % 1016,3 hPa 0,0 l/m 0 min 0 min 0 W/m 16,7 km/h (3 Bft)
20.10.2014 01:52 15,3 C 13,9 C 86 % 1016,4 hPa 0,0 l/m 0 min 0 min 0 W/m 20,9 km/h (4 Bft)
20.10.2014 01:54 15,3 C 13,9 C 86 % 1016,4 hPa 0,0 l/m 0 min 0 min 0 W/m 29,3 km/h (5 Bft)
20.10.2014 01:56 15,3 C 13,9 C 86 % 1016,3 hPa 0,0 l/m 0 min 0 min 0 W/m 20,9 km/h (4 Bft)
20.10.2014 01:58 15,3 C 13,9 C 86 % 1016,4 hPa 0,0 l/m 0 min 0 min 0 W/m 20,9 km/h (4 Bft)
20.10.2014 02:00 15,2 C 13,3 C 86 % 1016,3 hPa 0,0 l/m 0 min 0 min 0 W/m 27,2 km/h (4 Bft)
20.10.2014 02:02 15,2 C 13,9 C 86 % 1016,3 hPa 0,0 l/m 0 min 0 min 0 W/m 20,9 km/h (4 Bft)
20.10.2014 02:04 15,2 C 13,3 C 86 % 1016,3 hPa 0,0 l/m 0 min 0 min 0 W/m 27,2 km/h (4 Bft)
20.10.2014 02:06 15,2 C 13,3 C 86 % 1016,4 hPa 0,0 l/m 0 min 0 min 0 W/m 27,2 km/h (4 Bft)
20.10.2014 02:08 15,2 C 13,3 C 86 % 1016,4 hPa 0,0 l/m 0 min 0 min 0 W/m 25,1 km/h (4 Bft)
20.10.2014 02:10 15,2 C 13,3 C 86 % 1016,4 hPa 0,0 l/m 0 min 0 min 0 W/m 20,9 km/h (4 Bft)
20.10.2014 02:12 15,1 C 13,3 C 86 % 1016,4 hPa 0,0 l/m 0 min 0 min 0 W/m 20,9 km/h (4 Bft)
20.10.2014 02:14 15,1 C 13,3 C 86 % 1016,3 hPa 0,0 l/m 0 min 0 min 0 W/m 20,9 km/h (4 Bft)
20.10.2014 02:16 15,1 C 13,3 C 87 % 1016,3 hPa 0,0 l/m 0 min 0 min 0 W/m 16,7 km/h (3 Bft)
20.10.2014 02:18 15,1 C 13,3 C 87 % 1016,3 hPa 0,0 l/m 0 min 0 min 0 W/m 20,9 km/h (4 Bft)
20.10.2014 02:20 15,1 C 13,3 C 87 % 1016,3 hPa 0,0 l/m 0 min 0 min 0 W/m 20,9 km/h (4 Bft)
20.10.2014 02:22 15,0 C 13,3 C 87 % 1016,3 hPa 0,0 l/m 0 min 0 min 0 W/m 23,0 km/h (4 Bft)
20.10.2014 02:24 15,0 C 13,3 C 87 % 1016,3 hPa 0,0 l/m 0 min 0 min 0 W/m 23,0 km/h (4 Bft)
20.10.2014 02:26 14,9 C 13,3 C 87 % 1016,2 hPa 0,0 l/m 0 min 0 min 0 W/m 18,8 km/h (3 Bft)
20.10.2014 02:28 14,9 C 13,3 C 87 % 1016,3 hPa 0,0 l/m 0 min 0 min 0 W/m 12,6 km/h (3 Bft)
20.10.2014 02:30 14,9 C 13,3 C 87 % 1016,3 hPa 0,0 l/m 0 min 0 min 0 W/m 16,7 km/h (3 Bft)
20.10.2014 02:32 14,9 C 13,3 C 87 % 1016,3 hPa 0,0 l/m 0 min 0 min 0 W/m 12,6 km/h (3 Bft)
20.10.2014 02:34 14,9 C 13,3 C 87 % 1016,4 hPa 0,0 l/m 0 min 0 min 0 W/m 14,6 km/h (3 Bft)
20.10.2014 02:36 14,8 C 12,8 C 87 % 1016,4 hPa 0,0 l/m 0 min 0 min 0 W/m 14,6 km/h (3 Bft)
20.10.2014 02:38 14,8 C 12,8 C 87 % 1016,4 hPa 0,0 l/m 0 min 0 min 0 W/m 16,7 km/h (3 Bft)
20.10.2014 02:40 14,8 C 12,8 C 87 % 1016,4 hPa 0,0 l/m 0 min 0 min 0 W/m 16,7 km/h (3 Bft)
20.10.2014 02:42 14,8 C 12,8 C 87 % 1016,4 hPa 0,0 l/m 0 min 0 min 0 W/m 12,6 km/h (3 Bft)
20.10.2014 02:44 14,7 C 12,8 C 87 % 1016,4 hPa 0,0 l/m 0 min 0 min 0 W/m 14,6 km/h (3 Bft)
20.10.2014 02:46 14,7 C 12,8 C 87 % 1016,3 hPa 0,0 l/m 0 min 0 min 0 W/m 18,8 km/h (3 Bft)
20.10.2014 02:48 14,7 C 12,8 C 87 % 1016,3 hPa 0,0 l/m 0 min 0 min 0 W/m 16,7 km/h (3 Bft)
20.10.2014 02:50 14,7 C 12,8 C 87 % 1016,3 hPa 0,0 l/m 0 min 0 min 0 W/m 16,7 km/h (3 Bft)
20.10.2014 02:52 14,6 C 12,8 C 87 % 1016,3 hPa 0,0 l/m 0 min 0 min 0 W/m 18,8 km/h (3 Bft)
20.10.2014 02:54 14,6 C 12,8 C 87 % 1016,3 hPa 0,0 l/m 0 min 0 min 0 W/m 12,6 km/h (3 Bft)
20.10.2014 02:56 14,6 C 12,8 C 88 % 1016,3 hPa 0,0 l/m 0 min 0 min 0 W/m 20,9 km/h (4 Bft)
20.10.2014 02:58 14,5 C 12,8 C 88 % 1016,3 hPa 0,0 l/m 0 min 0 min 0 W/m 18,8 km/h (3 Bft)
20.10.2014 03:00 14,5 C 12,8 C 88 % 1016,3 hPa 0,0 l/m 0 min 0 min 0 W/m 10,5 km/h (2 Bft)
20.10.2014 03:02 14,5 C 12,8 C 88 % 1016,2 hPa 0,0 l/m 0 min 0 min 0 W/m 18,8 km/h (3 Bft)
20.10.2014 03:04 14,4 C 12,8 C 88 % 1016,3 hPa 0,0 l/m 0 min 0 min 0 W/m 14,6 km/h (3 Bft)
20.10.2014 03:06 14,4 C 12,8 C 88 % 1016,2 hPa 0,0 l/m 0 min 0 min 0 W/m 16,7 km/h (3 Bft)
20.10.2014 03:08 14,4 C 12,8 C 88 % 1016,3 hPa 0,0 l/m 0 min 0 min 0 W/m 14,6 km/h (3 Bft)
20.10.2014 03:10 14,4 C 12,8 C 88 % 1016,3 hPa 0,0 l/m 0 min 0 min 0 W/m 14,6 km/h (3 Bft)
20.10.2014 03:12 14,3 C 12,8 C 88 % 1016,3 hPa 0,0 l/m 0 min 0 min 0 W/m 12,6 km/h (3 Bft)
20.10.2014 03:14 14,3 C 12,8 C 88 % 1016,3 hPa 0,0 l/m 0 min 0 min 0 W/m 18,8 km/h (3 Bft)
20.10.2014 03:16 14,3 C 12,8 C 89 % 1016,3 hPa 0,0 l/m 0 min 0 min 0 W/m 12,6 km/h (3 Bft)
20.10.2014 03:18 14,2 C 12,8 C 89 % 1016,2 hPa 0,0 l/m 0 min 0 min 0 W/m 18,8 km/h (3 Bft)
20.10.2014 03:20 14,2 C 12,8 C 89 % 1016,3 hPa 0,0 l/m 0 min 0 min 0 W/m 18,8 km/h (3 Bft)
20.10.2014 03:22 14,2 C 12,8 C 89 % 1016,3 hPa 0,0 l/m 0 min 0 min 0 W/m 10,5 km/h (2 Bft)
20.10.2014 03:24 14,2 C 12,8 C 89 % 1016,3 hPa 0,0 l/m 0 min 0 min 0 W/m 18,8 km/h (3 Bft)
20.10.2014 03:26 14,2 C 12,8 C 89 % 1016,3 hPa 0,0 l/m 0 min 0 min 0 W/m 23,0 km/h (4 Bft)
20.10.2014 03:28 14,2 C 12,8 C 89 % 1016,3 hPa 0,0 l/m 0 min 0 min 0 W/m 16,7 km/h (3 Bft)
20.10.2014 03:30 14,2 C 12,8 C 89 % 1016,3 hPa 0,0 l/m 0 min 0 min 0 W/m 12,6 km/h (3 Bft)
20.10.2014 03:32 14,2 C 12,8 C 89 % 1016,3 hPa 0,0 l/m 0 min 0 min 0 W/m 16,7 km/h (3 Bft)
20.10.2014 03:34 14,2 C 12,2 C 89 % 1016,3 hPa 0,0 l/m 0 min 0 min 0 W/m 8,4 km/h (2 Bft)
20.10.2014 03:36 14,2 C 12,2 C 89 % 1016,3 hPa 0,0 l/m 0 min 0 min 0 W/m 14,6 km/h (3 Bft)
20.10.2014 03:38 14,2 C 12,2 C 90 % 1016,3 hPa 0,0 l/m 0 min 0 min 0 W/m 14,6 km/h (3 Bft)
20.10.2014 03:40 14,2 C 12,2 C 90 % 1016,3 hPa 0,0 l/m 0 min 0 min 0 W/m 14,6 km/h (3 Bft)
20.10.2014 03:42 14,1 C 12,2 C 90 % 1016,3 hPa 0,0 l/m 0 min 0 min 0 W/m 14,6 km/h (3 Bft)
20.10.2014 03:44 14,1 C 12,2 C 90 % 1016,3 hPa 0,0 l/m 0 min 0 min 0 W/m 18,8 km/h (3 Bft)
20.10.2014 03:46 14,1 C 12,2 C 90 % 1016,3 hPa 0,0 l/m 0 min 0 min 0 W/m 18,8 km/h (3 Bft)
20.10.2014 03:48 14,1 C 12,8 C 90 % 1016,3 hPa 0,0 l/m 0 min 0 min 0 W/m 16,7 km/h (3 Bft)
20.10.2014 03:50 14,1 C 12,8 C 90 % 1016,3 hPa 0,0 l/m 0 min 0 min 0 W/m 18,8 km/h (3 Bft)
20.10.2014 03:52 14,0 C 12,2 C 90 % 1016,2 hPa 0,0 l/m 0 min 0 min 0 W/m 14,6 km/h (3 Bft)
20.10.2014 03:54 14,0 C 12,2 C 90 % 1016,3 hPa 0,0 l/m 0 min 0 min 0 W/m 10,5 km/h (2 Bft)
20.10.2014 03:56 13,9 C 12,2 C 90 % 1016,3 hPa 0,0 l/m 0 min 0 min 0 W/m 16,7 km/h (3 Bft)
20.10.2014 03:58 13,9 C 12,2 C 91 % 1016,3 hPa 0,0 l/m 0 min 0 min 0 W/m 12,6 km/h (3 Bft)
20.10.2014 04:00 13,9 C 12,2 C 91 % 1016,3 hPa 0,0 l/m 0 min 0 min 0 W/m 20,9 km/h (4 Bft)
20.10.2014 04:02 13,9 C 12,2 C 91 % 1016,2 hPa 0,0 l/m 0 min 0 min 0 W/m 10,5 km/h (2 Bft)
20.10.2014 04:04 13,9 C 12,2 C 91 % 1016,3 hPa 0,0 l/m 0 min 0 min 0 W/m 18,8 km/h (3 Bft)
20.10.2014 04:06 13,9 C 12,2 C 91 % 1016,3 hPa 0,0 l/m 0 min 0 min 0 W/m 16,7 km/h (3 Bft)
20.10.2014 04:08 13,9 C 12,2 C 91 % 1016,3 hPa 0,0 l/m 0 min 0 min 0 W/m 14,6 km/h (3 Bft)
20.10.2014 04:10 13,8 C 12,2 C 91 % 1016,4 hPa 0,0 l/m 0 min 0 min 0 W/m 18,8 km/h (3 Bft)
20.10.2014 04:12 13,8 C 12,2 C 91 % 1016,4 hPa 0,0 l/m 0 min 0 min 0 W/m 8,4 km/h (2 Bft)
20.10.2014 04:14 13,8 C 12,2 C 91 % 1016,3 hPa 0,0 l/m 0 min 0 min 0 W/m 14,6 km/h (3 Bft)
20.10.2014 04:16 13,8 C 12,2 C 91 % 1016,3 hPa 0,0 l/m 0 min 0 min 0 W/m 12,6 km/h (3 Bft)
20.10.2014 04:18 13,8 C 12,2 C 91 % 1016,3 hPa 0,0 l/m 0 min 0 min 0 W/m 14,6 km/h (3 Bft)
20.10.2014 04:20 13,7 C 12,2 C 91 % 1016,2 hPa 0,0 l/m 0 min 0 min 0 W/m 14,6 km/h (3 Bft)
20.10.2014 04:22 13,7 C 12,2 C 91 % 1016,2 hPa 0,0 l/m 0 min 0 min 0 W/m 16,7 km/h (3 Bft)
20.10.2014 04:24 13,7 C 12,2 C 91 % 1016,2 hPa 0,0 l/m 0 min 0 min 0 W/m 10,5 km/h (2 Bft)
20.10.2014 04:26 13,7 C 12,2 C 91 % 1016,1 hPa 0,0 l/m 0 min 0 min 0 W/m 16,7 km/h (3 Bft)
20.10.2014 04:28 13,7 C 12,2 C 91 % 1016,2 hPa 0,0 l/m 0 min 0 min 0 W/m 12,6 km/h (3 Bft)
20.10.2014 04:30 13,7 C 12,2 C 91 % 1016,2 hPa 0,0 l/m 0 min 0 min 0 W/m 10,5 km/h (2 Bft)
20.10.2014 04:32 13,6 C 12,2 C 91 % 1016,1 hPa 0,0 l/m 0 min 0 min 0 W/m 12,6 km/h (3 Bft)
20.10.2014 04:34 13,6 C 12,2 C 91 % 1016,2 hPa 0,0 l/m 0 min 0 min 0 W/m 14,6 km/h (3 Bft)
20.10.2014 04:36 13,6 C 12,2 C 91 % 1016,2 hPa 0,0 l/m 0 min 0 min 0 W/m 12,6 km/h (3 Bft)
20.10.2014 04:38 13,6 C 12,2 C 91 % 1016,2 hPa 0,0 l/m 0 min 0 min 0 W/m 12,6 km/h (3 Bft)
20.10.2014 04:40 13,6 C 12,2 C 91 % 1016,1 hPa 0,0 l/m 0 min 0 min 0 W/m 10,5 km/h (2 Bft)
20.10.2014 04:42 13,6 C 12,2 C 91 % 1016,1 hPa 0,0 l/m 0 min 0 min 0 W/m 10,5 km/h (2 Bft)
20.10.2014 04:44 13,5 C 12,2 C 91 % 1016,1 hPa 0,0 l/m 0 min 0 min 0 W/m 14,6 km/h (3 Bft)
20.10.2014 04:46 13,5 C 12,2 C 91 % 1016,2 hPa 0,0 l/m 0 min 0 min 0 W/m 16,7 km/h (3 Bft)
20.10.2014 04:48 13,4 C 12,2 C 92 % 1016,1 hPa 0,0 l/m 0 min 0 min 0 W/m 14,6 km/h (3 Bft)
20.10.2014 04:50 13,4 C 12,2 C 92 % 1016,1 hPa 0,0 l/m 0 min 0 min 0 W/m 16,7 km/h (3 Bft)
20.10.2014 04:52 13,4 C 12,2 C 92 % 1016,1 hPa 0,0 l/m 0 min 0 min 0 W/m 14,6 km/h (3 Bft)
20.10.2014 04:54 13,4 C 12,2 C 92 % 1016,1 hPa 0,0 l/m 0 min 0 min 0 W/m 16,7 km/h (3 Bft)
20.10.2014 04:56 13,4 C 12,2 C 92 % 1016,1 hPa 0,0 l/m 0 min 0 min 0 W/m 20,9 km/h (4 Bft)
20.10.2014 04:58 13,4 C 12,2 C 92 % 1016,1 hPa 0,0 l/m 0 min 0 min 0 W/m 20,9 km/h (4 Bft)
20.10.2014 05:00 13,4 C 12,2 C 92 % 1016,0 hPa 0,0 l/m 0 min 0 min 0 W/m 18,8 km/h (3 Bft)
20.10.2014 05:02 13,4 C 12,2 C 92 % 1016,0 hPa 0,0 l/m 0 min 0 min 0 W/m 16,7 km/h (3 Bft)
20.10.2014 05:04 13,3 C 12,2 C 92 % 1016,0 hPa 0,0 l/m 0 min 0 min 0 W/m 18,8 km/h (3 Bft)
20.10.2014 05:06 13,3 C 12,2 C 92 % 1016,0 hPa 0,0 l/m 0 min 0 min 0 W/m 12,6 km/h (3 Bft)
20.10.2014 05:08 13,3 C 12,2 C 92 % 1016,1 hPa 0,0 l/m 0 min 0 min 0 W/m 16,7 km/h (3 Bft)
20.10.2014 05:10 13,3 C 12,2 C 92 % 1016,1 hPa 0,0 l/m 0 min 0 min 0 W/m 18,8 km/h (3 Bft)
20.10.2014 05:12 13,3 C 12,2 C 92 % 1016,0 hPa 0,0 l/m 0 min 0 min 0 W/m 10,5 km/h (2 Bft)
20.10.2014 05:14 13,3 C 12,2 C 93 % 1015,9 hPa 0,0 l/m 0 min 0 min 0 W/m 14,6 km/h (3 Bft)
20.10.2014 05:16 13,3 C 12,2 C 92 % 1016,0 hPa 0,0 l/m 0 min 0 min 0 W/m 20,9 km/h (4 Bft)
20.10.2014 05:18 13,3 C 12,2 C 92 % 1016,0 hPa 0,0 l/m 0 min 0 min 0 W/m 18,8 km/h (3 Bft)
20.10.2014 05:20 13,3 C 12,2 C 93 % 1016,0 hPa 0,0 l/m 0 min 0 min 0 W/m 16,7 km/h (3 Bft)
20.10.2014 05:22 13,3 C 12,2 C 93 % 1016,0 hPa 0,0 l/m 0 min 0 min 0 W/m 18,8 km/h (3 Bft)
20.10.2014 05:24 13,3 C 12,2 C 93 % 1015,9 hPa 0,0 l/m 0 min 0 min 0 W/m 12,6 km/h (3 Bft)
20.10.2014 05:26 13,3 C 12,2 C 93 % 1015,9 hPa 0,0 l/m 0 min 0 min 0 W/m 16,7 km/h (3 Bft)
20.10.2014 05:28 13,3 C 12,2 C 93 % 1016,0 hPa 0,0 l/m 0 min 0 min 0 W/m 20,9 km/h (4 Bft)
20.10.2014 05:30 13,3 C 12,2 C 93 % 1016,1 hPa 0,0 l/m 0 min 0 min 0 W/m 16,7 km/h (3 Bft)
20.10.2014 05:32 13,3 C 12,2 C 93 % 1016,1 hPa 0,0 l/m 0 min 0 min 0 W/m 20,9 km/h (4 Bft)
20.10.2014 05:34 13,3 C 12,2 C 93 % 1016,0 hPa 0,0 l/m 0 min 0 min 0 W/m 18,8 km/h (3 Bft)
20.10.2014 05:36 13,3 C 12,2 C 93 % 1016,1 hPa 0,0 l/m 0 min 0 min 0 W/m 25,1 km/h (4 Bft)
20.10.2014 05:38 13,3 C 12,2 C 93 % 1016,1 hPa 0,0 l/m 0 min 0 min 0 W/m 18,8 km/h (3 Bft)
20.10.2014 05:40 13,4 C 12,2 C 93 % 1016,0 hPa 0,0 l/m 0 min 0 min 0 W/m 25,1 km/h (4 Bft)
20.10.2014 05:42 13,4 C 12,2 C 93 % 1016,1 hPa 0,0 l/m 0 min 0 min 0 W/m 25,1 km/h (4 Bft)
20.10.2014 05:44 13,4 C 12,2 C 93 % 1016,1 hPa 0,0 l/m 0 min 0 min 0 W/m 20,9 km/h (4 Bft)
20.10.2014 05:46 13,4 C 12,2 C 93 % 1016,1 hPa 0,0 l/m 0 min 0 min 0 W/m 18,8 km/h (3 Bft)
20.10.2014 05:48 13,4 C 12,2 C 93 % 1016,0 hPa 0,0 l/m 0 min 0 min 0 W/m 18,8 km/h (3 Bft)
20.10.2014 05:50 13,4 C 12,2 C 93 % 1016,1 hPa 0,0 l/m 0 min 0 min 0 W/m 25,1 km/h (4 Bft)
20.10.2014 05:52 13,4 C 12,2 C 93 % 1016,1 hPa 0,0 l/m 0 min 0 min 0 W/m 14,6 km/h (3 Bft)
20.10.2014 05:54 13,4 C 12,2 C 93 % 1016,1 hPa 0,0 l/m 0 min 0 min 0 W/m 20,9 km/h (4 Bft)
20.10.2014 05:56 13,4 C 12,2 C 93 % 1016,1 hPa 0,0 l/m 0 min 0 min 0 W/m 18,8 km/h (3 Bft)
20.10.2014 05:58 13,4 C 12,2 C 93 % 1016,2 hPa 0,0 l/m 0 min 0 min 0 W/m 20,9 km/h (4 Bft)
20.10.2014 06:00 13,5 C 12,2 C 93 % 1016,1 hPa 0,0 l/m 0 min 0 min 0 W/m 20,9 km/h (4 Bft)
20.10.2014 06:02 13,5 C 12,8 C 93 % 1016,1 hPa 0,0 l/m 0 min 0 min 0 W/m 16,7 km/h (3 Bft)
20.10.2014 06:06 13,6 C 12,8 C 93 % 1016,3 hPa 0,0 l/m 0 min 0 min 0 W/m 20,9 km/h (4 Bft)
20.10.2014 06:08 13,6 C 12,8 C 93 % 1016,3 hPa 0,0 l/m 0 min 0 min 0 W/m 20,9 km/h (4 Bft)
20.10.2014 06:10 13,6 C 12,8 C 93 % 1016,3 hPa 0,0 l/m 0 min 0 min 0 W/m 20,9 km/h (4 Bft)
20.10.2014 06:12 13,6 C 12,8 C 93 % 1016,3 hPa 0,0 l/m 0 min 0 min 0 W/m 18,8 km/h (3 Bft)
20.10.2014 06:14 13,6 C 12,8 C 93 % 1016,3 hPa 0,0 l/m 0 min 0 min 0 W/m 20,9 km/h (4 Bft)
20.10.2014 06:16 13,7 C 12,8 C 93 % 1016,3 hPa 0,0 l/m 0 min 0 min 0 W/m 14,6 km/h (3 Bft)
20.10.2014 06:18 13,7 C 12,8 C 93 % 1016,2 hPa 0,0 l/m 0 min 0 min 0 W/m 18,8 km/h (3 Bft)
20.10.2014 06:20 13,7 C 12,8 C 93 % 1016,3 hPa 0,0 l/m 0 min 0 min 0 W/m 14,6 km/h (3 Bft)
20.10.2014 06:22 13,7 C 12,8 C 93 % 1016,3 hPa 0,0 l/m 0 min 0 min 0 W/m 18,8 km/h (3 Bft)
20.10.2014 06:24 13,7 C 12,8 C 93 % 1016,3 hPa 0,0 l/m 0 min 0 min 0 W/m 18,8 km/h (3 Bft)
20.10.2014 06:26 13,7 C 12,8 C 93 % 1016,3 hPa 0,0 l/m 0 min 0 min 0 W/m 29,3 km/h (5 Bft)
20.10.2014 06:28 13,7 C 12,8 C 93 % 1016,3 hPa 0,0 l/m 0 min 0 min 0 W/m 20,9 km/h (4 Bft)
20.10.2014 06:30 13,7 C 12,8 C 92 % 1016,3 hPa 0,0 l/m 0 min 0 min 0 W/m 20,9 km/h (4 Bft)
20.10.2014 06:32 13,8 C 12,8 C 93 % 1016,3 hPa 0,0 l/m 0 min 0 min 0 W/m 29,3 km/h (5 Bft)
20.10.2014 06:34 13,8 C 12,8 C 92 % 1016,2 hPa 0,0 l/m 0 min 0 min 0 W/m 20,9 km/h (4 Bft)
20.10.2014 06:36 13,8 C 12,8 C 92 % 1016,2 hPa 0,0 l/m 0 min 0 min 0 W/m 20,9 km/h (4 Bft)
20.10.2014 06:38 13,8 C 12,8 C 92 % 1016,2 hPa 0,0 l/m 0 min 0 min 0 W/m 20,9 km/h (4 Bft)
20.10.2014 06:40 13,8 C 12,8 C 92 % 1016,2 hPa 0,0 l/m 0 min 0 min 0 W/m 20,9 km/h (4 Bft)
20.10.2014 06:42 13,8 C 12,8 C 92 % 1016,2 hPa 0,0 l/m 0 min 0 min 0 W/m 16,7 km/h (3 Bft)
20.10.2014 06:44 13,8 C 12,8 C 92 % 1016,1 hPa 0,0 l/m 0 min 0 min 0 W/m 18,8 km/h (3 Bft)
20.10.2014 06:46 13,8 C 12,8 C 92 % 1016,2 hPa 0,0 l/m 0 min 0 min 0 W/m 25,1 km/h (4 Bft)
20.10.2014 06:48 13,8 C 12,8 C 92 % 1016,2 hPa 0,0 l/m 0 min 0 min 0 W/m 23,0 km/h (4 Bft)
20.10.2014 06:50 13,8 C 12,8 C 92 % 1016,2 hPa 0,0 l/m 0 min 0 min 0 W/m 16,7 km/h (3 Bft)
20.10.2014 06:52 13,8 C 12,2 C 92 % 1016,2 hPa 0,0 l/m 0 min 0 min 0 W/m 23,0 km/h (4 Bft)
20.10.2014 06:54 13,8 C 12,2 C 92 % 1016,2 hPa 0,0 l/m 0 min 0 min 0 W/m 20,9 km/h (4 Bft)
20.10.2014 06:56 13,8 C 12,2 C 92 % 1016,1 hPa 0,0 l/m 0 min 0 min 0 W/m 20,9 km/h (4 Bft)
20.10.2014 06:58 13,8 C 12,2 C 92 % 1016,2 hPa 0,0 l/m 0 min 0 min 0 W/m 25,1 km/h (4 Bft)
20.10.2014 07:00 13,8 C 12,2 C 92 % 1016,2 hPa 0,0 l/m 0 min 0 min 0 W/m 18,8 km/h (3 Bft)
20.10.2014 07:02 13,7 C 12,2 C 92 % 1016,1 hPa 0,0 l/m 0 min 0 min 0 W/m 20,9 km/h (4 Bft)
20.10.2014 07:04 13,7 C 12,2 C 92 % 1016,2 hPa 0,0 l/m 0 min 0 min 0 W/m 25,1 km/h (4 Bft)
20.10.2014 07:06 13,7 C 12,8 C 92 % 1016,2 hPa 0,0 l/m 0 min 0 min 0 W/m 23,0 km/h (4 Bft)
20.10.2014 07:08 13,7 C 12,8 C 92 % 1016,4 hPa 0,0 l/m 0 min 0 min 0 W/m 23,0 km/h (4 Bft)
20.10.2014 07:10 13,7 C 12,8 C 92 % 1016,3 hPa 0,0 l/m 0 min 0 min 0 W/m 20,9 km/h (4 Bft)
20.10.2014 07:12 13,7 C 12,8 C 92 % 1016,3 hPa 0,0 l/m 0 min 0 min 0 W/m 18,8 km/h (3 Bft)
20.10.2014 07:14 13,8 C 12,8 C 92 % 1016,2 hPa 0,0 l/m 0 min 0 min 0 W/m 25,1 km/h (4 Bft)
20.10.2014 07:16 13,8 C 12,8 C 92 % 1016,3 hPa 0,0 l/m 0 min 0 min 0 W/m 25,1 km/h (4 Bft)
20.10.2014 07:18 13,8 C 12,8 C 92 % 1016,3 hPa 0,0 l/m 0 min 0 min 0 W/m 25,1 km/h (4 Bft)
20.10.2014 07:20 13,8 C 12,8 C 92 % 1016,3 hPa 0,0 l/m 0 min 0 min 0 W/m 25,1 km/h (4 Bft)
20.10.2014 07:22 13,8 C 12,8 C 92 % 1016,3 hPa 0,0 l/m 0 min 0 min 0 W/m 27,2 km/h (4 Bft)
20.10.2014 07:24 13,8 C 12,8 C 92 % 1016,4 hPa 0,0 l/m 0 min 0 min 0 W/m 20,9 km/h (4 Bft)
20.10.2014 07:26 13,8 C 12,8 C 91 % 1016,4 hPa 0,0 l/m 0 min 0 min 0 W/m 14,6 km/h (3 Bft)
20.10.2014 07:28 13,8 C 12,8 C 91 % 1016,3 hPa 0,0 l/m 0 min 0 min 0 W/m 16,7 km/h (3 Bft)
20.10.2014 07:30 13,8 C 12,8 C 91 % 1016,4 hPa 0,0 l/m 0 min 0 min 0 W/m 16,7 km/h (3 Bft)
20.10.2014 07:32 13,9 C 12,8 C 91 % 1016,4 hPa 0,0 l/m 0 min 0 min 0 W/m 16,7 km/h (3 Bft)
20.10.2014 07:34 13,9 C 12,8 C 91 % 1016,3 hPa 0,0 l/m 0 min 0 min 0 W/m 16,7 km/h (3 Bft)
20.10.2014 07:36 13,9 C 12,8 C 91 % 1016,3 hPa 0,0 l/m 0 min 0 min 0 W/m 16,7 km/h (3 Bft)
20.10.2014 07:38 13,9 C 12,8 C 91 % 1016,4 hPa 0,0 l/m 0 min 0 min 0 W/m 20,9 km/h (4 Bft)
20.10.2014 07:40 13,9 C 12,8 C 91 % 1016,4 hPa 0,0 l/m 0 min 0 min 0 W/m 10,5 km/h (2 Bft)
20.10.2014 07:42 13,9 C 12,8 C 91 % 1016,3 hPa 0,0 l/m 0 min 0 min 0 W/m 25,1 km/h (4 Bft)
20.10.2014 07:44 13,9 C 12,8 C 91 % 1016,3 hPa 0,0 l/m 0 min 0 min 0 W/m 29,3 km/h (5 Bft)
20.10.2014 07:46 13,9 C 12,8 C 91 % 1016,3 hPa 0,0 l/m 0 min 0 min 0 W/m 23,0 km/h (4 Bft)
20.10.2014 07:48 13,9 C 12,8 C 91 % 1016,3 hPa 0,0 l/m 0 min 0 min 0 W/m 20,9 km/h (4 Bft)
20.10.2014 07:50 13,9 C 12,8 C 91 % 1016,3 hPa 0,0 l/m 0 min 0 min 0 W/m 23,0 km/h (4 Bft)
20.10.2014 07:52 13,9 C 12,8 C 91 % 1016,3 hPa 0,0 l/m 0 min 0 min 0 W/m 18,8 km/h (3 Bft)
20.10.2014 07:54 13,9 C 12,8 C 91 % 1016,4 hPa 0,0 l/m 0 min 0 min 0 W/m 18,8 km/h (3 Bft)
20.10.2014 07:56 13,9 C 12,8 C 91 % 1016,4 hPa 0,0 l/m 0 min 0 min 0 W/m 12,6 km/h (3 Bft)
20.10.2014 07:58 13,9 C 12,8 C 91 % 1016,5 hPa 0,0 l/m 0 min 0 min 0 W/m 8,4 km/h (2 Bft)
20.10.2014 08:00 13,9 C 12,8 C 91 % 1016,5 hPa 0,0 l/m 0 min 0 min 0 W/m 14,6 km/h (3 Bft)
20.10.2014 08:02 13,9 C 12,8 C 91 % 1016,5 hPa 0,0 l/m 0 min 0 min 0 W/m 14,6 km/h (3 Bft)
20.10.2014 08:04 13,9 C 12,8 C 91 % 1016,5 hPa 0,0 l/m 0 min 0 min 0 W/m 20,9 km/h (4 Bft)
20.10.2014 08:06 13,9 C 12,8 C 91 % 1016,4 hPa 0,0 l/m 0 min 0 min 0 W/m 27,2 km/h (4 Bft)
20.10.2014 08:08 13,9 C 12,8 C 91 % 1016,5 hPa 0,0 l/m 0 min 0 min 0 W/m 23,0 km/h (4 Bft)
20.10.2014 08:10 13,9 C 12,8 C 91 % 1016,5 hPa 0,0 l/m 0 min 0 min 0 W/m 20,9 km/h (4 Bft)
20.10.2014 08:12 13,9 C 12,8 C 91 % 1016,5 hPa 0,0 l/m 0 min 0 min 0 W/m 16,7 km/h (3 Bft)
20.10.2014 08:14 13,9 C 12,8 C 91 % 1016,5 hPa 0,0 l/m 0 min 0 min 0 W/m 16,7 km/h (3 Bft)
20.10.2014 08:16 13,9 C 12,8 C 91 % 1016,5 hPa 0,0 l/m 0 min 0 min 1 W/m 20,9 km/h (4 Bft)
20.10.2014 08:18 13,9 C 12,8 C 91 % 1016,4 hPa 0,0 l/m 0 min 0 min 5 W/m 20,9 km/h (4 Bft)
20.10.2014 08:20 13,8 C 12,8 C 91 % 1016,4 hPa 0,0 l/m 0 min 0 min 5 W/m 18,8 km/h (3 Bft)
20.10.2014 08:22 13,8 C 12,8 C 91 % 1016,5 hPa 0,0 l/m 0 min 0 min 6 W/m 18,8 km/h (3 Bft)
20.10.2014 08:24 13,8 C 12,8 C 91 % 1016,6 hPa 0,0 l/m 0 min 0 min 8 W/m 29,3 km/h (5 Bft)
20.10.2014 08:26 13,8 C 12,2 C 91 % 1016,7 hPa 0,0 l/m 0 min 0 min 9 W/m 20,9 km/h (4 Bft)
20.10.2014 08:28 13,8 C 12,2 C 91 % 1016,6 hPa 0,0 l/m 0 min 0 min 9 W/m 25,1 km/h (4 Bft)
20.10.2014 08:30 13,8 C 12,2 C 91 % 1016,6 hPa 0,0 l/m 0 min 0 min 11 W/m 27,2 km/h (4 Bft)
20.10.2014 08:32 13,8 C 12,2 C 91 % 1016,6 hPa 0,0 l/m 0 min 0 min 11 W/m 25,1 km/h (4 Bft)
20.10.2014 08:34 13,8 C 12,2 C 91 % 1016,6 hPa 0,0 l/m 0 min 0 min 12 W/m 25,1 km/h (4 Bft)
20.10.2014 08:36 13,8 C 12,2 C 91 % 1016,5 hPa 0,0 l/m 0 min 0 min 12 W/m 16,7 km/h (3 Bft)
20.10.2014 08:38 13,8 C 12,2 C 91 % 1016,6 hPa 0,0 l/m 0 min 0 min 12 W/m 27,2 km/h (4 Bft)
20.10.2014 08:40 13,8 C 12,2 C 91 % 1016,6 hPa 0,0 l/m 0 min 0 min 12 W/m 27,2 km/h (4 Bft)
20.10.2014 08:42 13,7 C 12,2 C 91 % 1016,6 hPa 0,0 l/m 0 min 0 min 13 W/m 20,9 km/h (4 Bft)
20.10.2014 08:44 13,7 C 12,2 C 91 % 1016,6 hPa 0,0 l/m 0 min 0 min 16 W/m 18,8 km/h (3 Bft)
20.10.2014 08:46 13,7 C 12,2 C 91 % 1016,7 hPa 0,0 l/m 0 min 0 min 18 W/m 20,9 km/h (4 Bft)
20.10.2014 08:48 13,7 C 12,2 C 91 % 1016,7 hPa 0,0 l/m 0 min 0 min 18 W/m 16,7 km/h (3 Bft)
20.10.2014 08:50 13,7 C 12,2 C 91 % 1016,6 hPa 0,0 l/m 0 min 0 min 20 W/m 18,8 km/h (3 Bft)
20.10.2014 08:52 13,7 C 12,2 C 91 % 1016,6 hPa 0,0 l/m 0 min 0 min 24 W/m 18,8 km/h (3 Bft)
20.10.2014 08:54 13,7 C 12,2 C 91 % 1016,7 hPa 0,0 l/m 0 min 0 min 28 W/m 12,6 km/h (3 Bft)
20.10.2014 08:56 13,7 C 12,2 C 91 % 1016,7 hPa 0,0 l/m 0 min 0 min 29 W/m 16,7 km/h (3 Bft)
20.10.2014 08:58 13,7 C 12,2 C 91 % 1016,7 hPa 0,0 l/m 0 min 0 min 32 W/m 12,6 km/h (3 Bft)
20.10.2014 09:00 13,7 C 12,2 C 91 % 1016,7 hPa 0,0 l/m 0 min 0 min 31 W/m 18,8 km/h (3 Bft)
20.10.2014 09:02 13,7 C 12,2 C 91 % 1016,8 hPa 0,0 l/m 0 min 0 min 34 W/m 25,1 km/h (4 Bft)
20.10.2014 09:04 13,7 C 12,8 C 91 % 1016,8 hPa 0,0 l/m 0 min 0 min 35 W/m 23,0 km/h (4 Bft)
20.10.2014 09:06 13,7 C 12,8 C 92 % 1016,8 hPa 0,0 l/m 0 min 0 min 38 W/m 14,6 km/h (3 Bft)
20.10.2014 09:08 13,7 C 12,8 C 92 % 1016,8 hPa 0,0 l/m 0 min 0 min 36 W/m 25,1 km/h (4 Bft)
20.10.2014 09:10 13,7 C 12,8 C 92 % 1016,8 hPa 0,0 l/m 0 min 0 min 37 W/m 23,0 km/h (4 Bft)
20.10.2014 09:12 13,7 C 12,8 C 92 % 1016,8 hPa 0,0 l/m 0 min 0 min 37 W/m 23,0 km/h (4 Bft)
20.10.2014 09:14 13,7 C 12,8 C 92 % 1016,8 hPa 0,0 l/m 0 min 0 min 41 W/m 18,8 km/h (3 Bft)
20.10.2014 09:16 13,7 C 12,8 C 92 % 1016,8 hPa 0,0 l/m 0 min 0 min 47 W/m 14,6 km/h (3 Bft)
20.10.2014 09:18 13,7 C 12,8 C 92 % 1016,8 hPa 0,0 l/m 0 min 0 min 48 W/m 25,1 km/h (4 Bft)
20.10.2014 09:20 13,8 C 12,8 C 92 % 1016,8 hPa 0,0 l/m 0 min 0 min 49 W/m 18,8 km/h (3 Bft)
20.10.2014 09:22 13,8 C 12,8 C 92 % 1016,7 hPa 0,0 l/m 0 min 0 min 55 W/m 16,7 km/h (3 Bft)
20.10.2014 09:24 13,8 C 12,8 C 92 % 1016,8 hPa 0,0 l/m 0 min 0 min 60 W/m 16,7 km/h (3 Bft)
20.10.2014 09:26 13,8 C 12,8 C 92 % 1016,7 hPa 0,0 l/m 0 min 0 min 68 W/m 16,7 km/h (3 Bft)
20.10.2014 09:28 13,8 C 12,8 C 92 % 1016,8 hPa 0,0 l/m 2 min 0 min 80 W/m 16,7 km/h (3 Bft)
20.10.2014 09:30 13,8 C 12,8 C 92 % 1016,7 hPa 0,0 l/m 2 min 0 min 81 W/m 16,7 km/h (3 Bft)
20.10.2014 09:32 13,8 C 12,8 C 91 % 1016,7 hPa 0,0 l/m 0 min 0 min 76 W/m 16,7 km/h (3 Bft)
20.10.2014 09:34 13,8 C 12,8 C 91 % 1016,8 hPa 0,0 l/m 0 min 0 min 77 W/m 16,7 km/h (3 Bft)
20.10.2014 09:36 13,8 C 12,8 C 91 % 1016,8 hPa 0,0 l/m 0 min 0 min 84 W/m 20,9 km/h (4 Bft)
20.10.2014 09:38 13,9 C 12,8 C 91 % 1016,8 hPa 0,0 l/m 0 min 0 min 66 W/m 23,0 km/h (4 Bft)
20.10.2014 09:40 13,9 C 12,8 C 91 % 1016,8 hPa 0,0 l/m 0 min 0 min 58 W/m 25,1 km/h (4 Bft)
20.10.2014 09:42 13,9 C 12,8 C 91 % 1016,8 hPa 0,0 l/m 0 min 0 min 54 W/m 16,7 km/h (3 Bft)
20.10.2014 09:44 13,9 C 12,8 C 91 % 1016,8 hPa 0,0 l/m 0 min 0 min 50 W/m 16,7 km/h (3 Bft)
20.10.2014 09:46 13,9 C 12,8 C 91 % 1016,8 hPa 0,0 l/m 0 min 0 min 45 W/m 25,1 km/h (4 Bft)
20.10.2014 09:48 14,0 C 12,8 C 91 % 1016,8 hPa 0,0 l/m 0 min 0 min 45 W/m 29,3 km/h (5 Bft)
20.10.2014 09:50 14,0 C 12,8 C 91 % 1016,8 hPa 0,0 l/m 0 min 0 min 42 W/m 20,9 km/h (4 Bft)
20.10.2014 09:52 14,1 C 12,8 C 91 % 1016,8 hPa 0,0 l/m 0 min 0 min 39 W/m 20,9 km/h (4 Bft)
20.10.2014 09:54 14,1 C 13,3 C 91 % 1016,8 hPa 0,0 l/m 0 min 0 min 42 W/m 29,3 km/h (5 Bft)
20.10.2014 09:56 14,1 C 13,3 C 91 % 1016,8 hPa 0,0 l/m 0 min 0 min 48 W/m 27,2 km/h (4 Bft)
20.10.2014 09:58 14,1 C 13,3 C 91 % 1016,9 hPa 0,0 l/m 0 min 0 min 48 W/m 18,8 km/h (3 Bft)
20.10.2014 10:00 14,2 C 13,3 C 91 % 1016,9 hPa 0,0 l/m 0 min 0 min 47 W/m 29,3 km/h (5 Bft)
20.10.2014 10:02 14,2 C 13,3 C 91 % 1017,0 hPa 0,0 l/m 0 min 0 min 45 W/m 20,9 km/h (4 Bft)
20.10.2014 10:04 14,2 C 13,3 C 91 % 1017,0 hPa 0,0 l/m 0 min 0 min 41 W/m 16,7 km/h (3 Bft)
20.10.2014 10:06 14,2 C 13,3 C 91 % 1017,0 hPa 0,0 l/m 0 min 0 min 40 W/m 25,1 km/h (4 Bft)
20.10.2014 10:08 14,2 C 13,3 C 91 % 1017,0 hPa 0,0 l/m 0 min 0 min 39 W/m 23,0 km/h (4 Bft)
20.10.2014 10:10 14,2 C 13,3 C 91 % 1017,0 hPa 0,0 l/m 0 min 0 min 43 W/m 23,0 km/h (4 Bft)
20.10.2014 10:12 14,2 C 13,3 C 90 % 1016,9 hPa 0,0 l/m 0 min 0 min 42 W/m 20,9 km/h (4 Bft)
20.10.2014 10:14 14,2 C 13,3 C 90 % 1016,9 hPa 0,0 l/m 0 min 0 min 40 W/m 20,9 km/h (4 Bft)
20.10.2014 10:16 14,2 C 13,3 C 90 % 1017,0 hPa 0,0 l/m 0 min 0 min 36 W/m 16,7 km/h (3 Bft)
20.10.2014 10:18 14,2 C 13,3 C 90 % 1017,0 hPa 0,0 l/m 0 min 0 min 38 W/m 25,1 km/h (4 Bft)
20.10.2014 10:20 14,2 C 13,3 C 90 % 1017,0 hPa 0,0 l/m 0 min 0 min 42 W/m 18,8 km/h (3 Bft)
20.10.2014 10:22 14,2 C 13,3 C 90 % 1016,9 hPa 0,0 l/m 0 min 0 min 66 W/m 16,7 km/h (3 Bft)
20.10.2014 10:24 14,2 C 13,3 C 90 % 1017,0 hPa 0,0 l/m 0 min 0 min 69 W/m 14,6 km/h (3 Bft)
20.10.2014 10:26 14,2 C 13,3 C 90 % 1017,0 hPa 0,0 l/m 0 min 0 min 72 W/m 18,8 km/h (3 Bft)
20.10.2014 10:28 14,2 C 13,3 C 90 % 1017,0 hPa 0,0 l/m 0 min 0 min 95 W/m 18,8 km/h (3 Bft)
20.10.2014 10:30 14,2 C 13,3 C 90 % 1017,0 hPa 0,0 l/m 0 min 0 min 119 W/m 23,0 km/h (4 Bft)
20.10.2014 10:32 14,3 C 13,9 C 90 % 1017,0 hPa 0,0 l/m 0 min 0 min 125 W/m 16,7 km/h (3 Bft)
20.10.2014 10:34 14,3 C 13,9 C 90 % 1017,0 hPa 0,0 l/m 0 min 0 min 105 W/m 14,6 km/h (3 Bft)
20.10.2014 10:36 14,4 C 13,9 C 90 % 1016,9 hPa 0,0 l/m 0 min 0 min 79 W/m 14,6 km/h (3 Bft)
20.10.2014 10:38 14,4 C 13,9 C 90 % 1017,0 hPa 0,0 l/m 0 min 0 min 79 W/m 20,9 km/h (4 Bft)
20.10.2014 10:40 14,4 C 13,9 C 90 % 1017,0 hPa 0,0 l/m 0 min 0 min 76 W/m 20,9 km/h (4 Bft)
20.10.2014 10:42 14,4 C 13,9 C 90 % 1017,0 hPa 0,0 l/m 0 min 0 min 82 W/m 23,0 km/h (4 Bft)
20.10.2014 10:44 14,4 C 13,9 C 90 % 1017,0 hPa 0,0 l/m 0 min 0 min 72 W/m 14,6 km/h (3 Bft)
20.10.2014 10:46 14,5 C 13,3 C 90 % 1017,1 hPa 0,0 l/m 0 min 0 min 74 W/m 14,6 km/h (3 Bft)
20.10.2014 10:48 14,5 C 13,9 C 90 % 1017,0 hPa 0,0 l/m 0 min 0 min 71 W/m 14,6 km/h (3 Bft)
20.10.2014 10:50 14,5 C 13,3 C 90 % 1017,1 hPa 0,0 l/m 0 min 0 min 58 W/m 20,9 km/h (4 Bft)
20.10.2014 10:52 14,5 C 13,3 C 90 % 1017,1 hPa 0,0 l/m 0 min 0 min 49 W/m 23,0 km/h (4 Bft)
20.10.2014 10:54 14,5 C 13,3 C 90 % 1017,1 hPa 0,0 l/m 0 min 0 min 47 W/m 25,1 km/h (4 Bft)
20.10.2014 10:56 14,5 C 13,3 C 89 % 1017,1 hPa 0,0 l/m 0 min 0 min 50 W/m 23,0 km/h (4 Bft)
20.10.2014 10:58 14,5 C 13,3 C 89 % 1017,1 hPa 0,0 l/m 0 min 0 min 45 W/m 14,6 km/h (3 Bft)
20.10.2014 11:00 14,5 C 13,3 C 89 % 1017,1 hPa 0,0 l/m 0 min 0 min 65 W/m 16,7 km/h (3 Bft)
20.10.2014 11:02 14,5 C 13,3 C 89 % 1017,1 hPa 0,0 l/m 0 min 0 min 89 W/m 20,9 km/h (4 Bft)
20.10.2014 11:04 14,6 C 13,9 C 90 % 1017,2 hPa 0,0 l/m 0 min 0 min 98 W/m 18,8 km/h (3 Bft)
20.10.2014 11:06 14,6 C 13,9 C 90 % 1017,3 hPa 0,0 l/m 0 min 0 min 93 W/m 25,1 km/h (4 Bft)
20.10.2014 11:08 14,6 C 13,9 C 90 % 1017,2 hPa 0,0 l/m 0 min 0 min 68 W/m 20,9 km/h (4 Bft)
20.10.2014 11:10 14,6 C 13,3 C 89 % 1017,3 hPa 0,0 l/m 0 min 0 min 79 W/m 25,1 km/h (4 Bft)
20.10.2014 11:12 14,6 C 13,9 C 89 % 1017,3 hPa 0,0 l/m 0 min 0 min 94 W/m 20,9 km/h (4 Bft)
20.10.2014 11:14 14,6 C 13,9 C 89 % 1017,3 hPa 0,0 l/m 0 min 0 min 114 W/m 27,2 km/h (4 Bft)
20.10.2014 11:16 14,6 C 13,9 C 89 % 1017,3 hPa 0,0 l/m 0 min 0 min 113 W/m 27,2 km/h (4 Bft)
20.10.2014 11:18 14,6 C 13,9 C 89 % 1017,3 hPa 0,0 l/m 0 min 0 min 113 W/m 27,2 km/h (4 Bft)
20.10.2014 11:20 14,6 C 13,9 C 89 % 1017,3 hPa 0,0 l/m 0 min 0 min 108 W/m 20,9 km/h (4 Bft)
20.10.2014 11:22 14,7 C 13,9 C 89 % 1017,3 hPa 0,0 l/m 0 min 0 min 119 W/m 29,3 km/h (5 Bft)
20.10.2014 11:24 14,7 C 13,9 C 89 % 1017,3 hPa 0,0 l/m 0 min 0 min 116 W/m 27,2 km/h (4 Bft)
20.10.2014 11:26 14,7 C 13,9 C 89 % 1017,3 hPa 0,0 l/m 0 min 0 min 112 W/m 16,7 km/h (3 Bft)
20.10.2014 11:28 14,7 C 13,9 C 89 % 1017,2 hPa 0,0 l/m 0 min 0 min 110 W/m 16,7 km/h (3 Bft)
20.10.2014 11:30 14,7 C 13,9 C 89 % 1017,2 hPa 0,0 l/m 0 min 0 min 96 W/m 23,0 km/h (4 Bft)
20.10.2014 11:32 14,7 C 13,9 C 88 % 1017,2 hPa 0,0 l/m 0 min 0 min 82 W/m 23,0 km/h (4 Bft)
20.10.2014 11:34 14,8 C 13,9 C 88 % 1017,2 hPa 0,0 l/m 0 min 0 min 82 W/m 23,0 km/h (4 Bft)
20.10.2014 11:36 14,8 C 13,9 C 88 % 1017,2 hPa 0,0 l/m 0 min 0 min 78 W/m 20,9 km/h (4 Bft)
20.10.2014 11:38 14,8 C 13,9 C 88 % 1017,3 hPa 0,0 l/m 0 min 0 min 86 W/m 20,9 km/h (4 Bft)
20.10.2014 11:40 14,8 C 13,9 C 88 % 1017,2 hPa 0,0 l/m 0 min 0 min 92 W/m 23,0 km/h (4 Bft)
20.10.2014 11:42 14,8 C 13,9 C 88 % 1017,4 hPa 0,0 l/m 0 min 0 min 91 W/m 20,9 km/h (4 Bft)
20.10.2014 11:44 14,8 C 13,9 C 88 % 1017,3 hPa 0,0 l/m 0 min 0 min 102 W/m 18,8 km/h (3 Bft)
20.10.2014 11:46 14,8 C 13,9 C 88 % 1017,3 hPa 0,0 l/m 0 min 0 min 99 W/m 10,5 km/h (2 Bft)
20.10.2014 11:48 14,8 C 13,9 C 88 % 1017,3 hPa 0,0 l/m 0 min 0 min 88 W/m 18,8 km/h (3 Bft)
20.10.2014 11:50 14,9 C 13,9 C 88 % 1017,2 hPa 0,0 l/m 0 min 0 min 90 W/m 29,3 km/h (5 Bft)
20.10.2014 11:52 14,8 C 13,9 C 88 % 1017,2 hPa 0,0 l/m 0 min 0 min 118 W/m 25,1 km/h (4 Bft)
20.10.2014 11:54 14,8 C 13,9 C 88 % 1017,3 hPa 0,0 l/m 0 min 0 min 139 W/m 16,7 km/h (3 Bft)
20.10.2014 11:56 14,9 C 13,9 C 88 % 1017,2 hPa 0,0 l/m 0 min 0 min 145 W/m 20,9 km/h (4 Bft)
20.10.2014 11:58 14,9 C 13,9 C 88 % 1017,1 hPa 0,0 l/m 0 min 0 min 180 W/m 27,2 km/h (4 Bft)
20.10.2014 12:00 14,9 C 14,4 C 88 % 1017,1 hPa 0,0 l/m 2 min 0 min 201 W/m 20,9 km/h (4 Bft)
20.10.2014 12:02 14,9 C 14,4 C 88 % 1017,1 hPa 0,0 l/m 2 min 0 min 203 W/m 18,8 km/h (3 Bft)
20.10.2014 12:05 15,0 C 14,4 C 88 % 1017,0 hPa 0,0 l/m 2 min 0 min 201 W/m 25,1 km/h (4 Bft)
20.10.2014 12:06 15,0 C 14,4 C 88 % 1017,0 hPa 0,0 l/m 1 min 0 min 198 W/m 20,9 km/h (4 Bft)
20.10.2014 12:08 15,1 C 14,4 C 87 % 1017,1 hPa 0,0 l/m 2 min 0 min 198 W/m 14,6 km/h (3 Bft)
20.10.2014 12:10 15,1 C 14,4 C 88 % 1017,2 hPa 0,0 l/m 2 min 0 min 193 W/m 20,9 km/h (4 Bft)
20.10.2014 12:12 15,2 C 14,4 C 88 % 1017,2 hPa 0,0 l/m 2 min 0 min 206 W/m 23,0 km/h (4 Bft)
20.10.2014 12:14 15,2 C 15,0 C 87 % 1017,2 hPa 0,0 l/m 2 min 0 min 241 W/m 16,7 km/h (3 Bft)
20.10.2014 12:16 15,3 C 15,0 C 87 % 1017,2 hPa 0,0 l/m 2 min 0 min 261 W/m 23,0 km/h (4 Bft)
20.10.2014 12:18 15,3 C 15,0 C 87 % 1017,3 hPa 0,0 l/m 2 min 0 min 270 W/m 27,2 km/h (4 Bft)
20.10.2014 12:20 15,4 C 15,0 C 87 % 1017,3 hPa 0,0 l/m 2 min 0 min 243 W/m 20,9 km/h (4 Bft)
20.10.2014 12:22 15,5 C 15,0 C 87 % 1017,3 hPa 0,0 l/m 2 min 0 min 245 W/m 14,6 km/h (3 Bft)
20.10.2014 12:24 15,6 C 15,0 C 87 % 1017,3 hPa 0,0 l/m 2 min 0 min 294 W/m 25,1 km/h (4 Bft)
20.10.2014 12:26 15,6 C 15,0 C 86 % 1017,3 hPa 0,0 l/m 2 min 0 min 313 W/m 20,9 km/h (4 Bft)
20.10.2014 12:28 15,7 C 15,0 C 86 % 1017,3 hPa 0,0 l/m 2 min 0 min 366 W/m 25,1 km/h (4 Bft)
20.10.2014 12:30 15,8 C 15,6 C 86 % 1017,3 hPa 0,0 l/m 2 min 0 min 350 W/m 31,4 km/h (5 Bft)
20.10.2014 12:32 15,9 C 15,6 C 85 % 1017,2 hPa 0,0 l/m 2 min 0 min 328 W/m 31,4 km/h (5 Bft)
20.10.2014 12:34 15,9 C 15,6 C 85 % 1017,3 hPa 0,0 l/m 2 min 0 min 318 W/m 27,2 km/h (4 Bft)
20.10.2014 12:36 16,0 C 15,6 C 84 % 1017,3 hPa 0,0 l/m 2 min 0 min 333 W/m 35,6 km/h (5 Bft)
20.10.2014 12:38 16,1 C 15,0 C 84 % 1017,2 hPa 0,0 l/m 2 min 0 min 244 W/m 27,2 km/h (4 Bft)
20.10.2014 12:40 16,1 C 15,0 C 84 % 1017,3 hPa 0,0 l/m 2 min 0 min 217 W/m 23,0 km/h (4 Bft)
20.10.2014 12:42 16,1 C 15,0 C 83 % 1017,3 hPa 0,0 l/m 2 min 0 min 222 W/m 18,8 km/h (3 Bft)
20.10.2014 12:44 16,1 C 15,0 C 83 % 1017,2 hPa 0,0 l/m 2 min 0 min 226 W/m 18,8 km/h (3 Bft)
20.10.2014 12:46 16,1 C 15,0 C 82 % 1017,2 hPa 0,0 l/m 2 min 0 min 209 W/m 20,9 km/h (4 Bft)
20.10.2014 12:48 16,1 C 15,0 C 82 % 1017,3 hPa 0,0 l/m 2 min 0 min 213 W/m 27,2 km/h (4 Bft)
20.10.2014 12:50 16,2 C 15,0 C 83 % 1017,3 hPa 0,0 l/m 0 min 0 min 192 W/m 14,6 km/h (3 Bft)
20.10.2014 12:52 16,2 C 15,0 C 83 % 1017,3 hPa 0,0 l/m 0 min 0 min 178 W/m 14,6 km/h (3 Bft)
20.10.2014 12:54 16,2 C 15,0 C 83 % 1017,3 hPa 0,0 l/m 0 min 0 min 184 W/m 25,1 km/h (4 Bft)
20.10.2014 12:56 16,2 C 15,0 C 83 % 1017,3 hPa 0,0 l/m 2 min 0 min 206 W/m 27,2 km/h (4 Bft)
20.10.2014 12:58 16,2 C 15,0 C 82 % 1017,3 hPa 0,0 l/m 2 min 0 min 226 W/m 25,1 km/h (4 Bft)
20.10.2014 13:00 16,2 C 15,0 C 82 % 1017,2 hPa 0,0 l/m 2 min 0 min 221 W/m 23,0 km/h (4 Bft)
20.10.2014 13:02 16,2 C 15,0 C 82 % 1017,2 hPa 0,0 l/m 2 min 0 min 230 W/m 20,9 km/h (4 Bft)
20.10.2014 13:04 16,2 C 15,6 C 82 % 1017,1 hPa 0,0 l/m 2 min 0 min 224 W/m 14,6 km/h (3 Bft)
20.10.2014 13:06 16,2 C 15,0 C 82 % 1017,1 hPa 0,0 l/m 2 min 0 min 221 W/m 25,1 km/h (4 Bft)
20.10.2014 13:08 16,2 C 15,0 C 82 % 1017,1 hPa 0,0 l/m 2 min 0 min 244 W/m 27,2 km/h (4 Bft)
20.10.2014 13:10 16,2 C 15,0 C 82 % 1017,1 hPa 0,0 l/m 2 min 0 min 303 W/m 23,0 km/h (4 Bft)
20.10.2014 13:12 16,2 C 15,0 C 82 % 1017,1 hPa 0,0 l/m 2 min 0 min 265 W/m 23,0 km/h (4 Bft)
20.10.2014 13:14 16,2 C 15,0 C 82 % 1017,1 hPa 0,0 l/m 2 min 0 min 266 W/m 27,2 km/h (4 Bft)
20.10.2014 13:16 16,3 C 15,0 C 82 % 1017,0 hPa 0,0 l/m 2 min 0 min 276 W/m 20,9 km/h (4 Bft)
20.10.2014 13:18 16,3 C 15,6 C 82 % 1017,1 hPa 0,0 l/m 2 min 0 min 277 W/m 12,6 km/h (3 Bft)
20.10.2014 13:20 16,4 C 15,6 C 82 % 1017,1 hPa 0,0 l/m 2 min 0 min 279 W/m 25,1 km/h (4 Bft)
20.10.2014 13:22 16,4 C 15,6 C 82 % 1017,1 hPa 0,0 l/m 2 min 0 min 288 W/m 29,3 km/h (5 Bft)
20.10.2014 13:24 16,5 C 15,6 C 82 % 1017,1 hPa 0,0 l/m 2 min 0 min 325 W/m 20,9 km/h (4 Bft)
20.10.2014 13:26 16,5 C 15,6 C 82 % 1017,0 hPa 0,0 l/m 2 min 0 min 291 W/m 27,2 km/h (4 Bft)
20.10.2014 13:28 16,6 C 16,1 C 82 % 1017,0 hPa 0,0 l/m 2 min 0 min 543 W/m 25,1 km/h (4 Bft)
20.10.2014 13:30 16,7 C 16,1 C 82 % 1017,0 hPa 0,0 l/m 2 min 0 min 601 W/m 12,6 km/h (3 Bft)
20.10.2014 13:32 16,8 C 16,7 C 83 % 1017,0 hPa 0,0 l/m 2 min 0 min 545 W/m 20,9 km/h (4 Bft)
20.10.2014 13:34 16,9 C 16,1 C 82 % 1017,0 hPa 0,0 l/m 2 min 0 min 570 W/m 29,3 km/h (5 Bft)
20.10.2014 13:36 17,0 C 16,1 C 81 % 1017,0 hPa 0,0 l/m 2 min 0 min 250 W/m 25,1 km/h (4 Bft)
20.10.2014 13:38 17,1 C 16,7 C 81 % 1017,0 hPa 0,0 l/m 2 min 0 min 450 W/m 27,2 km/h (4 Bft)
20.10.2014 13:40 17,2 C 16,7 C 81 % 1017,0 hPa 0,0 l/m 2 min 0 min 647 W/m 27,2 km/h (4 Bft)
20.10.2014 13:42 17,2 C 16,7 C 81 % 1016,9 hPa 0,0 l/m 2 min 0 min 647 W/m 25,1 km/h (4 Bft)
20.10.2014 13:44 17,3 C 16,7 C 80 % 1016,9 hPa 0,0 l/m 2 min 0 min 588 W/m 18,8 km/h (3 Bft)
20.10.2014 13:46 17,4 C 16,7 C 80 % 1016,9 hPa 0,0 l/m 2 min 0 min 331 W/m 18,8 km/h (3 Bft)
20.10.2014 13:48 17,5 C 16,1 C 80 % 1016,9 hPa 0,0 l/m 2 min 0 min 220 W/m 29,3 km/h (5 Bft)
20.10.2014 13:50 17,5 C 16,1 C 79 % 1016,8 hPa 0,0 l/m 2 min 0 min 215 W/m 20,9 km/h (4 Bft)
20.10.2014 13:52 17,5 C 15,6 C 79 % 1016,8 hPa 0,0 l/m 2 min 0 min 207 W/m 27,2 km/h (4 Bft)
20.10.2014 13:54 17,4 C 15,6 C 78 % 1016,8 hPa 0,0 l/m 2 min 0 min 215 W/m 23,0 km/h (4 Bft)
20.10.2014 13:56 17,4 C 15,6 C 79 % 1016,8 hPa 0,0 l/m 2 min 0 min 215 W/m 25,1 km/h (4 Bft)
20.10.2014 13:58 17,4 C 15,6 C 79 % 1016,8 hPa 0,0 l/m 2 min 0 min 262 W/m 27,2 km/h (4 Bft)
20.10.2014 14:00 17,4 C 15,6 C 79 % 1016,8 hPa 0,0 l/m 2 min 0 min 276 W/m 20,9 km/h (4 Bft)
20.10.2014 14:02 17,3 C 16,1 C 79 % 1016,7 hPa 0,0 l/m 2 min 0 min 273 W/m 20,9 km/h (4 Bft)
20.10.2014 14:04 17,3 C 16,1 C 79 % 1016,8 hPa 0,0 l/m 2 min 0 min 247 W/m 18,8 km/h (3 Bft)
20.10.2014 14:06 17,3 C 16,1 C 79 % 1016,7 hPa 0,0 l/m 2 min 0 min 307 W/m 18,8 km/h (3 Bft)
20.10.2014 14:08 17,4 C 16,1 C 79 % 1016,6 hPa 0,0 l/m 2 min 0 min 378 W/m 18,8 km/h (3 Bft)
20.10.2014 14:10 17,4 C 16,1 C 79 % 1016,7 hPa 0,0 l/m 2 min 0 min 323 W/m 16,7 km/h (3 Bft)
20.10.2014 14:12 17,4 C 16,1 C 79 % 1016,6 hPa 0,0 l/m 2 min 0 min 213 W/m 18,8 km/h (3 Bft)
20.10.2014 14:14 17,4 C 16,1 C 79 % 1016,6 hPa 0,0 l/m 2 min 0 min 213 W/m 20,9 km/h (4 Bft)
20.10.2014 14:16 17,4 C 16,1 C 78 % 1016,5 hPa 0,0 l/m 2 min 0 min 253 W/m 20,9 km/h (4 Bft)
20.10.2014 14:18 17,4 C 16,1 C 78 % 1016,6 hPa 0,0 l/m 2 min 0 min 227 W/m 16,7 km/h (3 Bft)
20.10.2014 14:20 17,4 C 16,1 C 78 % 1016,6 hPa 0,0 l/m 0 min 0 min 172 W/m 14,6 km/h (3 Bft)
20.10.2014 14:22 17,4 C 16,1 C 78 % 1016,5 hPa 0,0 l/m 2 min 0 min 224 W/m 29,3 km/h (5 Bft)
20.10.2014 14:24 17,4 C 16,1 C 78 % 1016,5 hPa 0,0 l/m 2 min 0 min 268 W/m 18,8 km/h (3 Bft)
20.10.2014 14:26 17,4 C 16,1 C 78 % 1016,5 hPa 0,0 l/m 2 min 0 min 239 W/m 23,0 km/h (4 Bft)
20.10.2014 14:28 17,4 C 16,1 C 78 % 1016,5 hPa 0,0 l/m 2 min 0 min 260 W/m 18,8 km/h (3 Bft)
20.10.2014 14:30 17,4 C 16,1 C 78 % 1016,5 hPa 0,0 l/m 2 min 0 min 316 W/m 20,9 km/h (4 Bft)
20.10.2014 14:32 17,4 C 16,1 C 77 % 1016,5 hPa 0,0 l/m 2 min 0 min 312 W/m 27,2 km/h (4 Bft)
20.10.2014 14:34 17,3 C 16,1 C 77 % 1016,5 hPa 0,0 l/m 2 min 0 min 268 W/m 20,9 km/h (4 Bft)
20.10.2014 14:36 17,3 C 16,1 C 77 % 1016,4 hPa 0,0 l/m 2 min 0 min 280 W/m 27,2 km/h (4 Bft)
20.10.2014 14:38 17,3 C 15,6 C 77 % 1016,3 hPa 0,0 l/m 2 min 0 min 232 W/m 27,2 km/h (4 Bft)
20.10.2014 14:40 17,3 C 15,6 C 76 % 1016,3 hPa 0,0 l/m 2 min 0 min 236 W/m 29,3 km/h (5 Bft)
20.10.2014 14:42 17,3 C 15,6 C 77 % 1016,3 hPa 0,0 l/m 2 min 0 min 227 W/m 23,0 km/h (4 Bft)
20.10.2014 14:44 17,3 C 15,6 C 77 % 1016,3 hPa 0,0 l/m 0 min 0 min 158 W/m 27,2 km/h (4 Bft)
20.10.2014 14:46 17,2 C 15,6 C 76 % 1016,2 hPa 0,0 l/m 0 min 0 min 170 W/m 23,0 km/h (4 Bft)
20.10.2014 14:48 17,2 C 15,6 C 76 % 1016,2 hPa 0,0 l/m 2 min 0 min 261 W/m 27,2 km/h (4 Bft)
20.10.2014 14:50 17,2 C 15,6 C 76 % 1016,2 hPa 0,0 l/m 2 min 0 min 323 W/m 18,8 km/h (3 Bft)
20.10.2014 14:52 17,2 C 15,6 C 77 % 1016,2 hPa 0,0 l/m 2 min 0 min 328 W/m 20,9 km/h (4 Bft)
20.10.2014 14:54 17,2 C 15,6 C 77 % 1016,1 hPa 0,0 l/m 2 min 0 min 313 W/m 16,7 km/h (3 Bft)
20.10.2014 14:56 17,3 C 15,6 C 78 % 1016,2 hPa 0,0 l/m 2 min 0 min 371 W/m 16,7 km/h (3 Bft)
20.10.2014 14:58 17,3 C 15,6 C 77 % 1016,2 hPa 0,0 l/m 2 min 0 min 327 W/m 18,8 km/h (3 Bft)
20.10.2014 15:00 17,3 C 15,6 C 77 % 1016,2 hPa 0,0 l/m 2 min 0 min 351 W/m 14,6 km/h (3 Bft)
20.10.2014 15:02 17,4 C 15,6 C 78 % 1016,2 hPa 0,0 l/m 2 min 0 min 359 W/m 18,8 km/h (3 Bft)
20.10.2014 15:04 17,5 C 15,6 C 77 % 1016,3 hPa 0,0 l/m 2 min 0 min 386 W/m 20,9 km/h (4 Bft)
20.10.2014 15:06 17,5 C 15,6 C 77 % 1016,2 hPa 0,0 l/m 2 min 0 min 317 W/m 16,7 km/h (3 Bft)
20.10.2014 15:08 17,6 C 15,6 C 77 % 1016,2 hPa 0,0 l/m 2 min 0 min 304 W/m 20,9 km/h (4 Bft)
20.10.2014 15:10 17,6 C 15,6 C 77 % 1016,2 hPa 0,0 l/m 2 min 0 min 293 W/m 18,8 km/h (3 Bft)
20.10.2014 15:12 17,6 C 15,6 C 77 % 1016,2 hPa 0,0 l/m 2 min 0 min 229 W/m 18,8 km/h (3 Bft)
20.10.2014 15:14 17,6 C 15,6 C 77 % 1016,2 hPa 0,0 l/m 2 min 0 min 352 W/m 18,8 km/h (3 Bft)
20.10.2014 15:16 17,7 C 15,6 C 76 % 1016,2 hPa 0,0 l/m 2 min 0 min 391 W/m 20,9 km/h (4 Bft)
20.10.2014 15:18 17,7 C 15,6 C 76 % 1016,2 hPa 0,0 l/m 2 min 0 min 389 W/m 20,9 km/h (4 Bft)
20.10.2014 15:20 17,7 C 16,1 C 76 % 1016,1 hPa 0,0 l/m 2 min 0 min 382 W/m 16,7 km/h (3 Bft)
20.10.2014 15:22 17,7 C 16,1 C 76 % 1016,1 hPa 0,0 l/m 2 min 0 min 372 W/m 18,8 km/h (3 Bft)
20.10.2014 15:24 17,8 C 16,1 C 76 % 1016,2 hPa 0,0 l/m 2 min 0 min 365 W/m 12,6 km/h (3 Bft)
20.10.2014 15:26 17,8 C 16,1 C 75 % 1016,1 hPa 0,0 l/m 2 min 0 min 296 W/m 20,9 km/h (4 Bft)
20.10.2014 15:28 17,9 C 16,1 C 75 % 1016,2 hPa 0,0 l/m 2 min 0 min 361 W/m 29,3 km/h (5 Bft)
20.10.2014 15:30 17,9 C 16,1 C 75 % 1016,2 hPa 0,0 l/m 2 min 0 min 367 W/m 18,8 km/h (3 Bft)
20.10.2014 15:32 17,9 C 15,6 C 75 % 1016,2 hPa 0,0 l/m 2 min 0 min 195 W/m 18,8 km/h (3 Bft)
20.10.2014 15:34 17,9 C 15,6 C 75 % 1016,2 hPa 0,0 l/m 2 min 0 min 223 W/m 16,7 km/h (3 Bft)
20.10.2014 15:36 17,9 C 16,1 C 75 % 1016,2 hPa 0,0 l/m 2 min 0 min 265 W/m 23,0 km/h (4 Bft)
20.10.2014 15:38 18,0 C 16,1 C 75 % 1016,1 hPa 0,0 l/m 2 min 0 min 411 W/m 16,7 km/h (3 Bft)
20.10.2014 15:40 18,1 C 16,1 C 75 % 1016,1 hPa 0,0 l/m 2 min 0 min 414 W/m 23,0 km/h (4 Bft)
20.10.2014 15:42 18,1 C 16,1 C 74 % 1016,1 hPa 0,0 l/m 2 min 0 min 428 W/m 25,1 km/h (4 Bft)
20.10.2014 15:44 18,2 C 16,1 C 74 % 1016,1 hPa 0,0 l/m 2 min 0 min 391 W/m 27,2 km/h (4 Bft)
20.10.2014 15:46 18,2 C 16,1 C 74 % 1016,0 hPa 0,0 l/m 2 min 0 min 350 W/m 27,2 km/h (4 Bft)
20.10.2014 15:48 18,2 C 16,1 C 73 % 1015,9 hPa 0,0 l/m 2 min 0 min 331 W/m 23,0 km/h (4 Bft)
20.10.2014 15:50 18,2 C 16,1 C 73 % 1015,9 hPa 0,0 l/m 2 min 0 min 327 W/m 20,9 km/h (4 Bft)
20.10.2014 15:52 18,2 C 16,1 C 74 % 1016,0 hPa 0,0 l/m 2 min 0 min 316 W/m 16,7 km/h (3 Bft)
20.10.2014 15:54 18,3 C 16,1 C 74 % 1016,0 hPa 0,0 l/m 2 min 0 min 335 W/m 16,7 km/h (3 Bft)
20.10.2014 15:56 18,3 C 15,6 C 74 % 1016,0 hPa 0,0 l/m 2 min 0 min 325 W/m 23,0 km/h (4 Bft)
20.10.2014 15:58 18,3 C 15,6 C 73 % 1015,9 hPa 0,0 l/m 2 min 0 min 310 W/m 25,1 km/h (4 Bft)
20.10.2014 16:00 18,2 C 15,6 C 73 % 1015,8 hPa 0,0 l/m 2 min 0 min 185 W/m 27,2 km/h (4 Bft)
20.10.2014 16:02 18,1 C 15,6 C 73 % 1015,9 hPa 0,0 l/m 2 min 0 min 237 W/m 23,0 km/h (4 Bft)
20.10.2014 16:04 18,1 C 15,6 C 73 % 1015,9 hPa 0,0 l/m 2 min 0 min 233 W/m 23,0 km/h (4 Bft)
20.10.2014 16:06 18,0 C 15,6 C 73 % 1015,8 hPa 0,0 l/m 2 min 0 min 258 W/m 18,8 km/h (3 Bft)
20.10.2014 16:08 17,9 C 15,6 C 74 % 1015,8 hPa 0,0 l/m 2 min 0 min 160 W/m 18,8 km/h (3 Bft)
20.10.2014 16:10 17,9 C 15,6 C 74 % 1015,8 hPa 0,0 l/m 0 min 0 min 109 W/m 16,7 km/h (3 Bft)
20.10.2014 16:12 17,8 C 15,6 C 74 % 1015,8 hPa 0,0 l/m 0 min 0 min 108 W/m 18,8 km/h (3 Bft)
20.10.2014 16:14 17,8 C 15,0 C 75 % 1015,7 hPa 0,0 l/m 0 min 0 min 110 W/m 14,6 km/h (3 Bft)
20.10.2014 16:16 17,7 C 15,0 C 74 % 1015,7 hPa 0,0 l/m 2 min 0 min 199 W/m 25,1 km/h (4 Bft)
20.10.2014 16:18 17,7 C 15,6 C 74 % 1015,6 hPa 0,0 l/m 2 min 0 min 264 W/m 20,9 km/h (4 Bft)
20.10.2014 16:20 17,6 C 15,0 C 74 % 1015,6 hPa 0,0 l/m 2 min 0 min 225 W/m 18,8 km/h (3 Bft)
20.10.2014 16:22 17,6 C 15,0 C 74 % 1015,6 hPa 0,0 l/m 2 min 0 min 165 W/m 14,6 km/h (3 Bft)
20.10.2014 16:24 17,6 C 15,0 C 75 % 1015,6 hPa 0,0 l/m 2 min 0 min 226 W/m 14,6 km/h (3 Bft)
20.10.2014 16:26 17,6 C 15,0 C 75 % 1015,5 hPa 0,0 l/m 2 min 0 min 218 W/m 16,7 km/h (3 Bft)
20.10.2014 16:28 17,6 C 15,6 C 75 % 1015,6 hPa 0,0 l/m 2 min 0 min 138 W/m 18,8 km/h (3 Bft)
20.10.2014 16:30 17,5 C 15,0 C 75 % 1015,5 hPa 0,0 l/m 0 min 0 min 95 W/m 20,9 km/h (4 Bft)
20.10.2014 16:32 17,5 C 15,0 C 75 % 1015,5 hPa 0,0 l/m 2 min 0 min 152 W/m 23,0 km/h (4 Bft)
20.10.2014 16:34 17,5 C 15,0 C 75 % 1015,5 hPa 0,0 l/m 2 min 0 min 233 W/m 23,0 km/h (4 Bft)
20.10.2014 16:36 17,5 C 15,6 C 75 % 1015,5 hPa 0,0 l/m 2 min 0 min 222 W/m 14,6 km/h (3 Bft)
20.10.2014 16:38 17,5 C 15,0 C 75 % 1015,4 hPa 0,0 l/m 2 min 0 min 192 W/m 25,1 km/h (4 Bft)
20.10.2014 16:40 17,4 C 15,0 C 74 % 1015,4 hPa 0,0 l/m 0 min 0 min 55 W/m 14,6 km/h (3 Bft)
20.10.2014 16:42 17,4 C 15,0 C 74 % 1015,3 hPa 0,0 l/m 0 min 0 min 49 W/m 18,8 km/h (3 Bft)
20.10.2014 16:44 17,3 C 15,0 C 74 % 1015,4 hPa 0,0 l/m 0 min 0 min 52 W/m 16,7 km/h (3 Bft)
20.10.2014 16:46 17,3 C 15,0 C 74 % 1015,3 hPa 0,0 l/m 0 min 0 min 54 W/m 23,0 km/h (4 Bft)
20.10.2014 16:48 17,2 C 14,4 C 75 % 1015,3 hPa 0,0 l/m 0 min 0 min 49 W/m 18,8 km/h (3 Bft)
20.10.2014 16:50 17,1 C 14,4 C 75 % 1015,2 hPa 0,0 l/m 0 min 0 min 44 W/m 14,6 km/h (3 Bft)
20.10.2014 16:52 17,1 C 14,4 C 75 % 1015,3 hPa 0,0 l/m 0 min 0 min 66 W/m 14,6 km/h (3 Bft)
20.10.2014 16:54 17,0 C 14,4 C 75 % 1015,2 hPa 0,0 l/m 2 min 0 min 165 W/m 14,6 km/h (3 Bft)
20.10.2014 16:56 16,9 C 15,0 C 76 % 1015,2 hPa 0,0 l/m 2 min 0 min 189 W/m 14,6 km/h (3 Bft)
20.10.2014 16:58 16,9 C 15,0 C 76 % 1015,2 hPa 0,0 l/m 2 min 0 min 194 W/m 16,7 km/h (3 Bft)
20.10.2014 17:00 16,9 C 15,0 C 76 % 1015,2 hPa 0,0 l/m 2 min 0 min 188 W/m 12,6 km/h (3 Bft)
20.10.2014 17:02 16,9 C 15,0 C 76 % 1015,2 hPa 0,0 l/m 2 min 0 min 178 W/m 12,6 km/h (3 Bft)
20.10.2014 17:04 16,9 C 15,0 C 77 % 1015,2 hPa 0,0 l/m 2 min 0 min 144 W/m 12,6 km/h (3 Bft)
20.10.2014 17:06 16,8 C 15,0 C 77 % 1015,1 hPa 0,0 l/m 2 min 0 min 103 W/m 12,6 km/h (3 Bft)
20.10.2014 17:08 16,8 C 15,0 C 77 % 1015,2 hPa 0,0 l/m 2 min 0 min 110 W/m 18,8 km/h (3 Bft)
20.10.2014 17:10 16,8 C 15,0 C 77 % 1015,2 hPa 0,0 l/m 2 min 0 min 84 W/m 20,9 km/h (4 Bft)
20.10.2014 17:12 16,8 C 15,0 C 77 % 1015,3 hPa 0,0 l/m 0 min 0 min 71 W/m 16,7 km/h (3 Bft)
20.10.2014 17:14 16,7 C 15,0 C 77 % 1015,2 hPa 0,0 l/m 2 min 0 min 80 W/m 20,9 km/h (4 Bft)
20.10.2014 17:16 16,7 C 15,0 C 77 % 1015,2 hPa 0,0 l/m 2 min 0 min 133 W/m 25,1 km/h (4 Bft)
20.10.2014 17:18 16,7 C 15,0 C 77 % 1015,1 hPa 0,0 l/m 2 min 0 min 146 W/m 20,9 km/h (4 Bft)
20.10.2014 17:20 16,7 C 15,0 C 77 % 1015,1 hPa 0,0 l/m 2 min 0 min 138 W/m 16,7 km/h (3 Bft)
20.10.2014 17:22 16,6 C 15,0 C 77 % 1015,1 hPa 0,0 l/m 2 min 0 min 110 W/m 16,7 km/h (3 Bft)
20.10.2014 17:24 16,6 C 15,0 C 77 % 1015,1 hPa 0,0 l/m 2 min 0 min 83 W/m 14,6 km/h (3 Bft)
20.10.2014 17:26 16,6 C 15,0 C 77 % 1015,1 hPa 0,0 l/m 2 min 0 min 96 W/m 18,8 km/h (3 Bft)
20.10.2014 17:28 16,6 C 15,0 C 77 % 1015,0 hPa 0,0 l/m 2 min 0 min 95 W/m 16,7 km/h (3 Bft)
20.10.2014 17:30 16,6 C 15,0 C 78 % 1015,0 hPa 0,0 l/m 2 min 0 min 89 W/m 16,7 km/h (3 Bft)
20.10.2014 17:32 16,5 C 14,4 C 78 % 1015,0 hPa 0,0 l/m 2 min 0 min 78 W/m 20,9 km/h (4 Bft)
20.10.2014 17:34 16,5 C 14,4 C 78 % 1015,0 hPa 0,0 l/m 2 min 0 min 67 W/m 12,6 km/h (3 Bft)
20.10.2014 17:36 16,5 C 14,4 C 78 % 1014,9 hPa 0,0 l/m 2 min 0 min 60 W/m 12,6 km/h (3 Bft)
20.10.2014 17:38 16,4 C 14,4 C 78 % 1014,9 hPa 0,0 l/m 2 min 0 min 50 W/m 16,7 km/h (3 Bft)
20.10.2014 17:40 16,4 C 14,4 C 78 % 1014,8 hPa 0,0 l/m 0 min 0 min 46 W/m 18,8 km/h (3 Bft)
20.10.2014 17:42 16,4 C 14,4 C 79 % 1014,8 hPa 0,0 l/m 0 min 0 min 42 W/m 12,6 km/h (3 Bft)
20.10.2014 17:44 16,4 C 13,9 C 79 % 1014,7 hPa 0,0 l/m 0 min 0 min 42 W/m 14,6 km/h (3 Bft)
20.10.2014 17:46 16,3 C 13,9 C 79 % 1014,7 hPa 0,0 l/m 0 min 0 min 41 W/m 8,4 km/h (2 Bft)
20.10.2014 17:48 16,3 C 13,9 C 79 % 1014,8 hPa 0,0 l/m 0 min 0 min 38 W/m 6,3 km/h (2 Bft)
20.10.2014 17:50 16,3 C 13,9 C 79 % 1014,8 hPa 0,0 l/m 0 min 0 min 32 W/m 18,8 km/h (3 Bft)
20.10.2014 17:52 16,2 C 13,9 C 79 % 1014,8 hPa 0,0 l/m 0 min 0 min 30 W/m 12,6 km/h (3 Bft)
20.10.2014 17:54 16,2 C 13,9 C 79 % 1014,7 hPa 0,0 l/m 0 min 0 min 30 W/m 8,4 km/h (2 Bft)
20.10.2014 17:56 16,1 C 13,9 C 79 % 1014,7 hPa 0,0 l/m 0 min 0 min 27 W/m 8,4 km/h (2 Bft)
20.10.2014 17:58 16,1 C 13,9 C 80 % 1014,8 hPa 0,0 l/m 0 min 0 min 25 W/m 10,5 km/h (2 Bft)
20.10.2014 18:00 16,1 C 13,9 C 80 % 1014,8 hPa 0,0 l/m 0 min 0 min 25 W/m 6,3 km/h (2 Bft)
20.10.2014 18:02 16,0 C 13,9 C 80 % 1014,7 hPa 0,0 l/m 0 min 0 min 24 W/m 12,6 km/h (3 Bft)
20.10.2014 18:05 15,9 C 13,9 C 80 % 1014,7 hPa 0,0 l/m 2 min 0 min 22 W/m 14,6 km/h (3 Bft)
20.10.2014 18:06 15,9 C 13,9 C 80 % 1014,7 hPa 0,0 l/m 0 min 0 min 19 W/m 12,6 km/h (3 Bft)
20.10.2014 18:08 15,9 C 13,9 C 80 % 1014,7 hPa 0,0 l/m 2 min 0 min 19 W/m 16,7 km/h (3 Bft)
20.10.2014 18:10 15,8 C 13,9 C 80 % 1014,8 hPa 0,0 l/m 2 min 0 min 17 W/m 8,4 km/h (2 Bft)
20.10.2014 18:12 15,8 C 13,3 C 80 % 1014,8 hPa 0,0 l/m 2 min 0 min 16 W/m 8,4 km/h (2 Bft)
20.10.2014 18:14 15,7 C 13,3 C 81 % 1014,8 hPa 0,0 l/m 2 min 0 min 14 W/m 8,4 km/h (2 Bft)
20.10.2014 18:16 15,7 C 13,3 C 81 % 1014,7 hPa 0,0 l/m 2 min 0 min 13 W/m 10,5 km/h (2 Bft)
20.10.2014 18:18 15,7 C 13,3 C 81 % 1014,7 hPa 0,0 l/m 0 min 0 min 12 W/m 8,4 km/h (2 Bft)
20.10.2014 18:20 15,6 C 13,3 C 81 % 1014,7 hPa 0,0 l/m 0 min 0 min 11 W/m 10,5 km/h (2 Bft)
20.10.2014 18:22 15,6 C 13,3 C 81 % 1014,7 hPa 0,0 l/m 0 min 0 min 9 W/m 8,4 km/h (2 Bft)
20.10.2014 18:24 15,6 C 13,3 C 81 % 1014,7 hPa 0,0 l/m 0 min 0 min 7 W/m 8,4 km/h (2 Bft)
20.10.2014 18:26 15,5 C 13,3 C 81 % 1014,6 hPa 0,0 l/m 0 min 0 min 6 W/m 8,4 km/h (2 Bft)
20.10.2014 18:28 15,4 C 13,3 C 82 % 1014,6 hPa 0,0 l/m 0 min 0 min 5 W/m 8,4 km/h (2 Bft)
20.10.2014 18:30 15,4 C 13,3 C 82 % 1014,6 hPa 0,0 l/m 0 min 0 min 5 W/m 10,5 km/h (2 Bft)
20.10.2014 18:32 15,4 C 13,3 C 82 % 1014,6 hPa 0,0 l/m 0 min 0 min 5 W/m 14,6 km/h (3 Bft)
20.10.2014 18:34 15,3 C 13,3 C 82 % 1014,7 hPa 0,0 l/m 0 min 0 min 1 W/m 10,5 km/h (2 Bft)
20.10.2014 18:36 15,3 C 13,3 C 82 % 1014,7 hPa 0,0 l/m 0 min 0 min 0 W/m 12,6 km/h (3 Bft)
20.10.2014 18:38 15,3 C 13,3 C 82 % 1014,7 hPa 0,0 l/m 0 min 0 min 0 W/m 12,6 km/h (3 Bft)
20.10.2014 18:40 15,2 C 13,3 C 83 % 1014,6 hPa 0,0 l/m 0 min 0 min 0 W/m 10,5 km/h (2 Bft)
20.10.2014 18:42 15,2 C 13,3 C 83 % 1014,6 hPa 0,0 l/m 0 min 0 min 0 W/m 12,6 km/h (3 Bft)
20.10.2014 18:44 15,2 C 13,3 C 83 % 1014,7 hPa 0,0 l/m 0 min 0 min 0 W/m 12,6 km/h (3 Bft)
20.10.2014 18:46 15,1 C 13,3 C 83 % 1014,8 hPa 0,0 l/m 0 min 0 min 0 W/m 8,4 km/h (2 Bft)
20.10.2014 18:48 15,1 C 13,3 C 83 % 1014,8 hPa 0,0 l/m 0 min 0 min 0 W/m 12,6 km/h (3 Bft)
20.10.2014 18:50 15,1 C 13,3 C 84 % 1014,8 hPa 0,0 l/m 0 min 0 min 0 W/m 8,4 km/h (2 Bft)
20.10.2014 18:52 15,1 C 13,3 C 84 % 1014,8 hPa 0,0 l/m 0 min 0 min 0 W/m 10,5 km/h (2 Bft)
20.10.2014 18:54 15,0 C 13,3 C 84 % 1014,8 hPa 0,0 l/m 0 min 0 min 0 W/m 12,6 km/h (3 Bft)
20.10.2014 18:56 15,0 C 13,3 C 84 % 1014,7 hPa 0,0 l/m 0 min 0 min 0 W/m 8,4 km/h (2 Bft)
20.10.2014 18:58 14,9 C 12,8 C 84 % 1014,8 hPa 0,0 l/m 0 min 0 min 0 W/m 10,5 km/h (2 Bft)
20.10.2014 19:00 14,9 C 12,8 C 84 % 1014,8 hPa 0,0 l/m 0 min 0 min 0 W/m 14,6 km/h (3 Bft)
20.10.2014 19:02 14,9 C 12,8 C 84 % 1014,8 hPa 0,0 l/m 0 min 0 min 0 W/m 16,7 km/h (3 Bft)
20.10.2014 19:04 14,8 C 12,8 C 84 % 1014,8 hPa 0,0 l/m 0 min 0 min 0 W/m 10,5 km/h (2 Bft)
20.10.2014 19:06 14,8 C 12,8 C 84 % 1014,8 hPa 0,0 l/m 0 min 0 min 0 W/m 10,5 km/h (2 Bft)
20.10.2014 19:08 14,8 C 12,8 C 84 % 1014,8 hPa 0,0 l/m 0 min 0 min 0 W/m 10,5 km/h (2 Bft)
20.10.2014 19:10 14,8 C 12,8 C 84 % 1014,8 hPa 0,0 l/m 0 min 0 min 0 W/m 10,5 km/h (2 Bft)
20.10.2014 19:12 14,8 C 12,8 C 84 % 1014,8 hPa 0,0 l/m 0 min 0 min 0 W/m 8,4 km/h (2 Bft)
20.10.2014 19:14 14,7 C 12,8 C 84 % 1014,8 hPa 0,0 l/m 0 min 0 min 0 W/m 10,5 km/h (2 Bft)
20.10.2014 19:16 14,7 C 12,8 C 85 % 1014,8 hPa 0,0 l/m 0 min 0 min 0 W/m 12,6 km/h (3 Bft)
20.10.2014 19:18 14,7 C 12,8 C 84 % 1014,8 hPa 0,0 l/m 0 min 0 min 0 W/m 10,5 km/h (2 Bft)
20.10.2014 19:20 14,6 C 12,8 C 85 % 1014,7 hPa 0,0 l/m 0 min 0 min 0 W/m 10,5 km/h (2 Bft)
20.10.2014 19:22 14,6 C 12,8 C 85 % 1014,7 hPa 0,0 l/m 0 min 0 min 0 W/m 10,5 km/h (2 Bft)
20.10.2014 19:24 14,6 C 12,8 C 85 % 1014,7 hPa 0,0 l/m 0 min 0 min 0 W/m 12,6 km/h (3 Bft)
20.10.2014 19:26 14,6 C 12,8 C 85 % 1014,8 hPa 0,0 l/m 0 min 0 min 0 W/m 10,5 km/h (2 Bft)
20.10.2014 19:28 14,6 C 12,8 C 85 % 1014,8 hPa 0,0 l/m 0 min 0 min 0 W/m 8,4 km/h (2 Bft)
20.10.2014 19:30 14,5 C 12,8 C 85 % 1014,8 hPa 0,0 l/m 0 min 0 min 0 W/m 16,7 km/h (3 Bft)
20.10.2014 19:32 14,5 C 12,8 C 85 % 1014,9 hPa 0,0 l/m 0 min 0 min 0 W/m 16,7 km/h (3 Bft)
20.10.2014 19:34 14,4 C 12,8 C 86 % 1014,8 hPa 0,0 l/m 0 min 0 min 0 W/m 18,8 km/h (3 Bft)
20.10.2014 19:36 14,4 C 12,8 C 86 % 1014,8 hPa 0,0 l/m 0 min 2 min 0 W/m 23,0 km/h (4 Bft)
20.10.2014 19:38 14,4 C 12,8 C 86 % 1014,9 hPa 0,0 l/m 0 min 2 min 0 W/m 20,9 km/h (4 Bft)
20.10.2014 19:40 14,4 C 12,2 C 87 % 1014,8 hPa 1,0 l/m 0 min 2 min 0 W/m 23,0 km/h (4 Bft)
20.10.2014 19:42 14,4 C 12,2 C 87 % 1014,9 hPa 0,0 l/m 0 min 2 min 0 W/m 25,1 km/h (4 Bft)
20.10.2014 19:44 14,4 C 12,2 C 88 % 1014,8 hPa 0,0 l/m 0 min 2 min 0 W/m 27,2 km/h (4 Bft)
20.10.2014 19:46 14,4 C 12,2 C 89 % 1014,7 hPa 0,2 l/m 0 min 2 min 0 W/m 25,1 km/h (4 Bft)
20.10.2014 19:48 14,4 C 12,2 C 89 % 1014,8 hPa 0,0 l/m 0 min 2 min 0 W/m 16,7 km/h (3 Bft)
20.10.2014 19:50 14,4 C 12,2 C 89 % 1014,8 hPa 0,0 l/m 0 min 2 min 0 W/m 14,6 km/h (3 Bft)
20.10.2014 19:52 14,3 C 12,2 C 89 % 1014,6 hPa 0,2 l/m 0 min 2 min 0 W/m 16,7 km/h (3 Bft)
20.10.2014 19:54 14,3 C 12,2 C 89 % 1014,7 hPa 0,0 l/m 0 min 0 min 0 W/m 12,6 km/h (3 Bft)
20.10.2014 19:56 14,3 C 12,2 C 90 % 1014,7 hPa 0,0 l/m 0 min 0 min 0 W/m 12,6 km/h (3 Bft)
20.10.2014 19:58 14,2 C 12,2 C 90 % 1014,7 hPa 0,0 l/m 0 min 0 min 0 W/m 12,6 km/h (3 Bft)
20.10.2014 20:00 14,2 C 12,2 C 90 % 1014,7 hPa 0,0 l/m 0 min 0 min 0 W/m 8,4 km/h (2 Bft)
20.10.2014 20:02 14,2 C 12,2 C 90 % 1014,7 hPa 0,0 l/m 0 min 0 min 0 W/m 10,5 km/h (2 Bft)
20.10.2014 20:04 14,2 C 11,7 C 90 % 1014,6 hPa 0,0 l/m 0 min 0 min 0 W/m 8,4 km/h (2 Bft)
20.10.2014 20:06 14,2 C 11,7 C 90 % 1014,6 hPa 0,0 l/m 0 min 0 min 0 W/m 10,5 km/h (2 Bft)
20.10.2014 20:08 14,2 C 11,7 C 90 % 1014,6 hPa 0,0 l/m 0 min 0 min 0 W/m 14,6 km/h (3 Bft)
20.10.2014 20:10 14,2 C 11,7 C 91 % 1014,6 hPa 0,0 l/m 0 min 0 min 0 W/m 12,6 km/h (3 Bft)
20.10.2014 20:12 14,2 C 11,7 C 91 % 1014,6 hPa 0,0 l/m 0 min 0 min 0 W/m 8,4 km/h (2 Bft)
20.10.2014 20:14 14,1 C 11,7 C 91 % 1014,5 hPa 0,0 l/m 0 min 0 min 0 W/m 10,5 km/h (2 Bft)
20.10.2014 20:16 14,0 C 11,7 C 91 % 1014,6 hPa 0,0 l/m 0 min 0 min 0 W/m 12,6 km/h (3 Bft)
20.10.2014 20:18 14,0 C 11,7 C 91 % 1014,5 hPa 0,0 l/m 0 min 0 min 0 W/m 12,6 km/h (3 Bft)
20.10.2014 20:20 13,9 C 11,7 C 91 % 1014,5 hPa 0,0 l/m 0 min 0 min 0 W/m 8,4 km/h (2 Bft)
20.10.2014 20:22 13,9 C 11,7 C 91 % 1014,5 hPa 0,0 l/m 0 min 0 min 0 W/m 8,4 km/h (2 Bft)
20.10.2014 20:24 13,9 C 11,7 C 91 % 1014,5 hPa 0,0 l/m 0 min 0 min 0 W/m 8,4 km/h (2 Bft)
20.10.2014 20:26 13,8 C 11,7 C 91 % 1014,5 hPa 0,0 l/m 0 min 0 min 0 W/m 8,4 km/h (2 Bft)
20.10.2014 20:28 13,8 C 11,7 C 91 % 1014,4 hPa 0,0 l/m 0 min 0 min 0 W/m 8,4 km/h (2 Bft)
20.10.2014 20:30 13,8 C 11,7 C 91 % 1014,5 hPa 0,0 l/m 0 min 0 min 0 W/m 6,3 km/h (2 Bft)
20.10.2014 20:32 13,7 C 11,7 C 91 % 1014,4 hPa 0,0 l/m 0 min 0 min 0 W/m 8,4 km/h (2 Bft)
20.10.2014 20:34 13,7 C 11,7 C 91 % 1014,4 hPa 0,0 l/m 0 min 0 min 0 W/m 8,4 km/h (2 Bft)
20.10.2014 20:36 13,7 C 11,7 C 91 % 1014,5 hPa 0,0 l/m 0 min 0 min 0 W/m 6,3 km/h (2 Bft)
20.10.2014 20:38 13,7 C 11,7 C 91 % 1014,4 hPa 0,0 l/m 0 min 0 min 0 W/m 8,4 km/h (2 Bft)
20.10.2014 20:40 13,6 C 11,7 C 92 % 1014,4 hPa 0,0 l/m 0 min 0 min 0 W/m 6,3 km/h (2 Bft)
20.10.2014 20:42 13,6 C 11,7 C 91 % 1014,4 hPa 0,0 l/m 0 min 0 min 0 W/m 10,5 km/h (2 Bft)
20.10.2014 20:44 13,6 C 11,7 C 91 % 1014,4 hPa 0,0 l/m 0 min 0 min 0 W/m 8,4 km/h (2 Bft)
20.10.2014 20:46 13,5 C 11,7 C 91 % 1014,4 hPa 0,0 l/m 0 min 0 min 0 W/m 8,4 km/h (2 Bft)
20.10.2014 20:48 13,5 C 11,1 C 92 % 1014,4 hPa 0,0 l/m 0 min 0 min 0 W/m 8,4 km/h (2 Bft)
20.10.2014 20:50 13,4 C 11,1 C 92 % 1014,4 hPa 0,0 l/m 0 min 0 min 0 W/m 6,3 km/h (2 Bft)
20.10.2014 20:52 13,4 C 11,1 C 92 % 1014,4 hPa 0,0 l/m 0 min 0 min 0 W/m 6,3 km/h (2 Bft)
20.10.2014 20:54 13,4 C 11,1 C 92 % 1014,5 hPa 0,0 l/m 0 min 0 min 0 W/m 8,4 km/h (2 Bft)
20.10.2014 20:56 13,3 C 11,1 C 92 % 1014,4 hPa 0,0 l/m 0 min 0 min 0 W/m 10,5 km/h (2 Bft)
20.10.2014 20:58 13,3 C 11,1 C 92 % 1014,5 hPa 0,0 l/m 0 min 0 min 0 W/m 10,5 km/h (2 Bft)
20.10.2014 21:00 13,3 C 11,1 C 92 % 1014,5 hPa 0,0 l/m 0 min 0 min 0 W/m 10,5 km/h (2 Bft)
20.10.2014 21:02 13,3 C 11,1 C 92 % 1014,6 hPa 0,0 l/m 0 min 0 min 0 W/m 10,5 km/h (2 Bft)
20.10.2014 21:04 13,2 C 11,7 C 92 % 1014,5 hPa 0,0 l/m 0 min 0 min 0 W/m 12,6 km/h (3 Bft)
20.10.2014 21:06 13,2 C 11,7 C 92 % 1014,5 hPa 0,0 l/m 0 min 0 min 0 W/m 10,5 km/h (2 Bft)
20.10.2014 21:08 13,2 C 11,7 C 92 % 1014,6 hPa 0,0 l/m 0 min 0 min 0 W/m 8,4 km/h (2 Bft)
20.10.2014 21:10 13,2 C 11,7 C 92 % 1014,5 hPa 0,0 l/m 0 min 0 min 0 W/m 10,5 km/h (2 Bft)
20.10.2014 21:12 13,2 C 11,7 C 92 % 1014,5 hPa 0,0 l/m 0 min 0 min 0 W/m 8,4 km/h (2 Bft)
20.10.2014 21:14 13,1 C 11,7 C 92 % 1014,5 hPa 0,0 l/m 0 min 0 min 0 W/m 8,4 km/h (2 Bft)
20.10.2014 21:16 13,1 C 11,7 C 93 % 1014,5 hPa 0,0 l/m 0 min 0 min 0 W/m 10,5 km/h (2 Bft)
20.10.2014 21:18 13,1 C 11,7 C 93 % 1014,4 hPa 0,0 l/m 0 min 0 min 0 W/m 12,6 km/h (3 Bft)
20.10.2014 21:20 13,1 C 11,7 C 93 % 1014,4 hPa 0,0 l/m 0 min 0 min 0 W/m 12,6 km/h (3 Bft)
20.10.2014 21:22 13,1 C 11,7 C 93 % 1014,4 hPa 0,0 l/m 0 min 0 min 0 W/m 12,6 km/h (3 Bft)
20.10.2014 21:24 13,1 C 11,7 C 93 % 1014,4 hPa 0,0 l/m 0 min 0 min 0 W/m 10,5 km/h (2 Bft)
20.10.2014 21:26 13,1 C 11,7 C 93 % 1014,4 hPa 0,0 l/m 0 min 0 min 0 W/m 12,6 km/h (3 Bft)
20.10.2014 21:28 13,1 C 11,7 C 93 % 1014,4 hPa 0,0 l/m 0 min 0 min 0 W/m 14,6 km/h (3 Bft)
20.10.2014 21:30 13,1 C 11,7 C 93 % 1014,3 hPa 0,0 l/m 0 min 0 min 0 W/m 12,6 km/h (3 Bft)
20.10.2014 21:32 13,1 C 11,7 C 93 % 1014,4 hPa 0,0 l/m 0 min 0 min 0 W/m 14,6 km/h (3 Bft)
20.10.2014 21:34 13,1 C 11,7 C 93 % 1014,3 hPa 0,0 l/m 0 min 0 min 0 W/m 16,7 km/h (3 Bft)
20.10.2014 21:36 13,1 C 11,7 C 94 % 1014,3 hPa 0,0 l/m 0 min 0 min 0 W/m 16,7 km/h (3 Bft)
20.10.2014 21:38 13,1 C 11,7 C 93 % 1014,3 hPa 0,0 l/m 0 min 0 min 0 W/m 12,6 km/h (3 Bft)
20.10.2014 21:40 13,1 C 11,7 C 93 % 1014,4 hPa 0,0 l/m 0 min 0 min 0 W/m 18,8 km/h (3 Bft)
20.10.2014 21:42 13,1 C 11,7 C 94 % 1014,3 hPa 0,0 l/m 0 min 0 min 0 W/m 25,1 km/h (4 Bft)
20.10.2014 21:44 13,1 C 11,7 C 94 % 1014,3 hPa 0,0 l/m 0 min 0 min 0 W/m 14,6 km/h (3 Bft)
20.10.2014 21:46 13,1 C 11,7 C 94 % 1014,3 hPa 0,0 l/m 0 min 0 min 0 W/m 18,8 km/h (3 Bft)
20.10.2014 21:48 13,2 C 11,7 C 94 % 1014,3 hPa 0,0 l/m 0 min 0 min 0 W/m 16,7 km/h (3 Bft)
20.10.2014 21:50 13,2 C 11,7 C 94 % 1014,3 hPa 0,0 l/m 0 min 0 min 0 W/m 12,6 km/h (3 Bft)
20.10.2014 21:52 13,2 C 11,7 C 94 % 1014,3 hPa 0,0 l/m 0 min 2 min 0 W/m 18,8 km/h (3 Bft)
20.10.2014 21:54 13,2 C 11,7 C 94 % 1014,3 hPa 0,0 l/m 0 min 2 min 0 W/m 16,7 km/h (3 Bft)
20.10.2014 21:56 13,2 C 11,7 C 94 % 1014,4 hPa 0,0 l/m 0 min 2 min 0 W/m 16,7 km/h (3 Bft)
20.10.2014 21:58 13,2 C 11,7 C 94 % 1014,4 hPa 0,0 l/m 0 min 2 min 0 W/m 20,9 km/h (4 Bft)
20.10.2014 22:00 13,2 C 11,7 C 94 % 1014,4 hPa 0,0 l/m 0 min 2 min 0 W/m 20,9 km/h (4 Bft)
20.10.2014 22:02 13,2 C 11,7 C 94 % 1014,4 hPa 0,2 l/m 0 min 2 min 0 W/m 25,1 km/h (4 Bft)
20.10.2014 22:04 13,2 C 11,7 C 94 % 1014,3 hPa 0,0 l/m 0 min 2 min 0 W/m 23,0 km/h (4 Bft)
20.10.2014 22:06 13,2 C 11,7 C 94 % 1014,3 hPa 0,0 l/m 0 min 2 min 0 W/m 18,8 km/h (3 Bft)
20.10.2014 22:08 13,2 C 11,7 C 94 % 1014,3 hPa 0,0 l/m 0 min 2 min 0 W/m 14,6 km/h (3 Bft)
20.10.2014 22:10 13,2 C 11,7 C 94 % 1014,3 hPa 0,0 l/m 0 min 0 min 0 W/m 10,5 km/h (2 Bft)
20.10.2014 22:12 13,2 C 11,7 C 94 % 1014,3 hPa 0,0 l/m 0 min 0 min 0 W/m 12,6 km/h (3 Bft)
20.10.2014 22:14 13,2 C 11,7 C 94 % 1014,2 hPa 0,0 l/m 0 min 0 min 0 W/m 10,5 km/h (2 Bft)
20.10.2014 22:16 13,2 C 11,7 C 94 % 1014,3 hPa 0,0 l/m 0 min 0 min 0 W/m 10,5 km/h (2 Bft)
20.10.2014 22:18 13,2 C 11,7 C 94 % 1014,2 hPa 0,0 l/m 0 min 0 min 0 W/m 12,6 km/h (3 Bft)
20.10.2014 22:20 13,2 C 11,7 C 94 % 1014,2 hPa 0,0 l/m 0 min 0 min 0 W/m 10,5 km/h (2 Bft)
20.10.2014 22:22 13,2 C 11,7 C 95 % 1014,2 hPa 0,0 l/m 0 min 0 min 0 W/m 14,6 km/h (3 Bft)
20.10.2014 22:24 13,2 C 11,7 C 95 % 1014,2 hPa 0,0 l/m 0 min 0 min 0 W/m 8,4 km/h (2 Bft)
20.10.2014 22:26 13,2 C 11,7 C 95 % 1014,2 hPa 0,0 l/m 0 min 0 min 0 W/m 10,5 km/h (2 Bft)
20.10.2014 22:28 13,1 C 11,7 C 95 % 1014,3 hPa 0,0 l/m 0 min 0 min 0 W/m 12,6 km/h (3 Bft)
20.10.2014 22:30 13,1 C 11,7 C 95 % 1014,2 hPa 0,0 l/m 0 min 0 min 0 W/m 10,5 km/h (2 Bft)
20.10.2014 22:32 13,1 C 11,1 C 95 % 1014,2 hPa 0,0 l/m 0 min 0 min 0 W/m 12,6 km/h (3 Bft)
20.10.2014 22:34 13,1 C 11,1 C 95 % 1014,2 hPa 0,0 l/m 0 min 0 min 0 W/m 8,4 km/h (2 Bft)
20.10.2014 22:36 13,1 C 11,1 C 95 % 1014,1 hPa 0,0 l/m 0 min 0 min 0 W/m 8,4 km/h (2 Bft)
20.10.2014 22:38 13,1 C 11,1 C 95 % 1014,1 hPa 0,0 l/m 0 min 0 min 0 W/m 8,4 km/h (2 Bft)
20.10.2014 22:40 13,0 C 11,1 C 95 % 1014,1 hPa 0,0 l/m 0 min 0 min 0 W/m 10,5 km/h (2 Bft)
20.10.2014 22:42 13,0 C 11,1 C 95 % 1014,1 hPa 0,0 l/m 0 min 0 min 0 W/m 10,5 km/h (2 Bft)
20.10.2014 22:44 13,0 C 11,1 C 95 % 1014,1 hPa 0,0 l/m 0 min 0 min 0 W/m 12,6 km/h (3 Bft)
20.10.2014 22:46 12,9 C 11,1 C 95 % 1014,1 hPa 0,0 l/m 0 min 0 min 0 W/m 12,6 km/h (3 Bft)
20.10.2014 22:48 12,9 C 11,1 C 95 % 1014,1 hPa 0,0 l/m 0 min 0 min 0 W/m 12,6 km/h (3 Bft)
20.10.2014 22:50 12,9 C 11,1 C 95 % 1014,1 hPa 0,0 l/m 0 min 0 min 0 W/m 14,6 km/h (3 Bft)
20.10.2014 22:52 12,9 C 11,1 C 94 % 1014,1 hPa 0,0 l/m 0 min 0 min 0 W/m 14,6 km/h (3 Bft)
20.10.2014 22:54 12,9 C 11,1 C 95 % 1014,1 hPa 0,0 l/m 0 min 0 min 0 W/m 14,6 km/h (3 Bft)
20.10.2014 22:56 12,8 C 11,1 C 95 % 1014,1 hPa 0,0 l/m 0 min 0 min 0 W/m 14,6 km/h (3 Bft)
20.10.2014 22:58 12,8 C 11,1 C 95 % 1014,0 hPa 0,0 l/m 0 min 0 min 0 W/m 12,6 km/h (3 Bft)
20.10.2014 23:00 12,8 C 11,1 C 95 % 1014,0 hPa 0,0 l/m 0 min 0 min 0 W/m 12,6 km/h (3 Bft)
20.10.2014 23:02 12,8 C 11,1 C 95 % 1014,0 hPa 0,0 l/m 0 min 0 min 0 W/m 8,4 km/h (2 Bft)
20.10.2014 23:04 12,7 C 11,1 C 95 % 1014,0 hPa 0,0 l/m 0 min 0 min 0 W/m 10,5 km/h (2 Bft)
20.10.2014 23:06 12,7 C 11,1 C 95 % 1014,0 hPa 0,0 l/m 0 min 0 min 0 W/m 12,6 km/h (3 Bft)
20.10.2014 23:08 12,7 C 11,1 C 95 % 1014,0 hPa 0,0 l/m 0 min 0 min 0 W/m 12,6 km/h (3 Bft)
20.10.2014 23:10 12,7 C 11,1 C 95 % 1014,0 hPa 0,0 l/m 0 min 0 min 0 W/m 12,6 km/h (3 Bft)
20.10.2014 23:12 12,7 C 11,1 C 95 % 1013,9 hPa 0,0 l/m 0 min 0 min 0 W/m 10,5 km/h (2 Bft)
20.10.2014 23:14 12,6 C 11,1 C 95 % 1014,0 hPa 0,0 l/m 0 min 0 min 0 W/m 12,6 km/h (3 Bft)
20.10.2014 23:16 12,6 C 11,1 C 95 % 1014,0 hPa 0,0 l/m 0 min 0 min 0 W/m 14,6 km/h (3 Bft)
20.10.2014 23:18 12,6 C 11,1 C 95 % 1014,0 hPa 0,0 l/m 0 min 0 min 0 W/m 14,6 km/h (3 Bft)
20.10.2014 23:20 12,6 C 11,1 C 95 % 1013,9 hPa 0,0 l/m 0 min 0 min 0 W/m 10,5 km/h (2 Bft)
20.10.2014 23:22 12,6 C 11,1 C 95 % 1013,9 hPa 0,0 l/m 0 min 0 min 0 W/m 10,5 km/h (2 Bft)
20.10.2014 23:24 12,5 C 11,1 C 95 % 1013,8 hPa 0,0 l/m 0 min 0 min 0 W/m 10,5 km/h (2 Bft)
20.10.2014 23:26 12,5 C 10,6 C 95 % 1013,8 hPa 0,0 l/m 0 min 0 min 0 W/m 18,8 km/h (3 Bft)
20.10.2014 23:28 12,5 C 10,6 C 95 % 1013,8 hPa 0,0 l/m 0 min 0 min 0 W/m 14,6 km/h (3 Bft)
20.10.2014 23:30 12,4 C 10,6 C 95 % 1013,9 hPa 0,0 l/m 0 min 0 min 0 W/m 12,6 km/h (3 Bft)
20.10.2014 23:32 12,4 C 10,6 C 95 % 1013,8 hPa 0,0 l/m 0 min 0 min 0 W/m 12,6 km/h (3 Bft)
20.10.2014 23:34 12,4 C 10,6 C 95 % 1013,8 hPa 0,0 l/m 0 min 0 min 0 W/m 14,6 km/h (3 Bft)
20.10.2014 23:36 12,4 C 10,6 C 95 % 1013,7 hPa 0,0 l/m 0 min 0 min 0 W/m 14,6 km/h (3 Bft)
20.10.2014 23:38 12,4 C 10,6 C 95 % 1013,7 hPa 0,0 l/m 0 min 0 min 0 W/m 14,6 km/h (3 Bft)
20.10.2014 23:40 12,4 C 10,6 C 95 % 1013,7 hPa 0,0 l/m 0 min 0 min 0 W/m 10,5 km/h (2 Bft)
20.10.2014 23:42 12,3 C 10,6 C 95 % 1013,6 hPa 0,0 l/m 0 min 0 min 0 W/m 8,4 km/h (2 Bft)
20.10.2014 23:44 12,3 C 10,6 C 95 % 1013,7 hPa 0,0 l/m 0 min 0 min 0 W/m 12,6 km/h (3 Bft)
20.10.2014 23:46 12,3 C 10,6 C 95 % 1013,7 hPa 0,0 l/m 0 min 0 min 0 W/m 12,6 km/h (3 Bft)
20.10.2014 23:48 12,3 C 10,6 C 95 % 1013,7 hPa 0,0 l/m 0 min 0 min 0 W/m 12,6 km/h (3 Bft)
20.10.2014 23:50 12,3 C 10,6 C 95 % 1013,7 hPa 0,0 l/m 0 min 0 min 0 W/m 16,7 km/h (3 Bft)
20.10.2014 23:52 12,3 C 10,6 C 95 % 1013,6 hPa 0,0 l/m 0 min 0 min 0 W/m 18,8 km/h (3 Bft)
20.10.2014 23:54 12,2 C 10,6 C 95 % 1013,6 hPa 0,0 l/m 0 min 0 min 0 W/m 14,6 km/h (3 Bft)
20.10.2014 23:56 12,2 C 10,6 C 95 % 1013,6 hPa 0,0 l/m 0 min 0 min 0 W/m 16,7 km/h (3 Bft)
20.10.2014 23:58 12,2 C 10,6 C 95 % 1013,6 hPa 0,0 l/m 0 min 0 min 0 W/m 25,1 km/h (4 Bft)
_ Min-Zeit 23:54 23:26 15:48 23:42 - - - - 17:48
Minimum _ 12,2 C 10,6 C 73 % 1013,6 hPa - - - - 6,3 km/h (2 Bft)
_ Max-Zeit 15:54 13:32 22:22 11:42 19:40 09:28 19:36 13:40 12:36
Maximum _ 18,3 C 16,7 C 95 % 1017,4 hPa 1,0 l/m 2 min 2 min 647 W/m 35,6 km/h
W-SW (5 Bft)
Durchschnitt _ 14,8 C 13,3 C 87 % 1015,9 hPa #1,6 l/m #5:19 h #36 min. 161 W/m 18,2 km/h (3 Bft)
© 2014 W. Hausmann